<?xml version="1.0" encoding="UTF-8"?>
<gpx version="1.1" creator="https://www.youtrack.es" xsi:schemaLocation="http://www.topografix.com/GPX/1/1 http://www.topografix.com/GPX/1/1/gpx.xsd http://www.garmin.com/xmlschemas/GpxExtensions/v3 http://www.garmin.com/xmlschemas/GpxExtensionsv3.xsd http://www.garmin.com/xmlschemas/TrackPointExtension/v1 http://www.garmin.com/xmlschemas/TrackPointExtensionv1.xsd" xmlns:gpxtpx="http://www.garmin.com/xmlschemas/TrackPointExtension/v1" xmlns:gpxx="http://www.garmin.com/xmlschemas/GpxExtensions/v3" xmlns:xsi="http://www.w3.org/2001/XMLSchema-instance">
  <metadata>
    <link href="https://www.youtrack.es">
      <text>YouTrack.es</text>
    </link>
    <time>2026-05-08T22:48:24Z</time>
  </metadata>
  <trk>
    <src>https://www.youtrack.es</src>
    <link href="https://www.youtrack.es/ruta/36651-observatori-mont-roig">
      <text>YouTrack.es</text>
    </link>
    <trkseg>
      <trkpt lat="42.35132" lon="2.8948267">
        <time>2022-09-26T05:37:40Z</time>
      </trkpt>
      <trkpt lat="42.351078" lon="2.8951232">
        <time>2022-09-26T05:37:43Z</time>
      </trkpt>
      <trkpt lat="42.351074" lon="2.895117">
        <time>2022-09-26T05:37:44Z</time>
      </trkpt>
      <trkpt lat="42.35107" lon="2.895111">
        <time>2022-09-26T05:37:45Z</time>
      </trkpt>
      <trkpt lat="42.351067" lon="2.8951066">
        <time>2022-09-26T05:37:46Z</time>
      </trkpt>
      <trkpt lat="42.351063" lon="2.8951027">
        <time>2022-09-26T05:37:47Z</time>
      </trkpt>
      <trkpt lat="42.35106" lon="2.8950975">
        <time>2022-09-26T05:37:48Z</time>
      </trkpt>
      <trkpt lat="42.351055" lon="2.8950884">
        <time>2022-09-26T05:37:49Z</time>
      </trkpt>
      <trkpt lat="42.35105" lon="2.8950791">
        <time>2022-09-26T05:37:50Z</time>
      </trkpt>
      <trkpt lat="42.351048" lon="2.895074">
        <time>2022-09-26T05:37:51Z</time>
      </trkpt>
      <trkpt lat="42.351044" lon="2.895068">
        <time>2022-09-26T05:37:52Z</time>
      </trkpt>
      <trkpt lat="42.35104" lon="2.8950608">
        <time>2022-09-26T05:37:53Z</time>
      </trkpt>
      <trkpt lat="42.351032" lon="2.8950524">
        <time>2022-09-26T05:37:54Z</time>
      </trkpt>
      <trkpt lat="42.35103" lon="2.8950436">
        <time>2022-09-26T05:37:55Z</time>
      </trkpt>
      <trkpt lat="42.351017" lon="2.8950348">
        <time>2022-09-26T05:37:56Z</time>
      </trkpt>
      <trkpt lat="42.35098" lon="2.8949907">
        <time>2022-09-26T05:38:01Z</time>
      </trkpt>
      <trkpt lat="42.35095" lon="2.8949332">
        <time>2022-09-26T05:38:09Z</time>
      </trkpt>
      <trkpt lat="42.350925" lon="2.8948855">
        <time>2022-09-26T05:38:15Z</time>
      </trkpt>
      <trkpt lat="42.35098" lon="2.8949437">
        <time>2022-09-26T05:38:21Z</time>
      </trkpt>
      <trkpt lat="42.35101" lon="2.894985">
        <time>2022-09-26T05:38:25Z</time>
      </trkpt>
      <trkpt lat="42.351055" lon="2.895042">
        <time>2022-09-26T05:38:30Z</time>
      </trkpt>
      <trkpt lat="42.35109" lon="2.8950844">
        <time>2022-09-26T05:38:35Z</time>
      </trkpt>
      <trkpt lat="42.35103" lon="2.8950427">
        <time>2022-09-26T05:38:44Z</time>
      </trkpt>
      <trkpt lat="42.350983" lon="2.894988">
        <time>2022-09-26T05:38:49Z</time>
      </trkpt>
      <trkpt lat="42.35094" lon="2.894936">
        <time>2022-09-26T05:38:54Z</time>
      </trkpt>
      <trkpt lat="42.350903" lon="2.894881">
        <time>2022-09-26T05:38:59Z</time>
      </trkpt>
      <trkpt lat="42.350864" lon="2.8948252">
        <time>2022-09-26T05:39:04Z</time>
      </trkpt>
      <trkpt lat="42.35083" lon="2.8947668">
        <time>2022-09-26T05:39:09Z</time>
      </trkpt>
      <trkpt lat="42.350792" lon="2.89472">
        <time>2022-09-26T05:39:13Z</time>
      </trkpt>
      <trkpt lat="42.35075" lon="2.8946614">
        <time>2022-09-26T05:39:18Z</time>
      </trkpt>
      <trkpt lat="42.35072" lon="2.8945923">
        <time>2022-09-26T05:39:24Z</time>
      </trkpt>
      <trkpt lat="42.350697" lon="2.8945227">
        <time>2022-09-26T05:39:30Z</time>
      </trkpt>
      <trkpt lat="42.35067" lon="2.8944547">
        <time>2022-09-26T05:39:36Z</time>
      </trkpt>
      <trkpt lat="42.35064" lon="2.8944006">
        <time>2022-09-26T05:39:41Z</time>
      </trkpt>
      <trkpt lat="42.35061" lon="2.8943343">
        <time>2022-09-26T05:39:46Z</time>
      </trkpt>
      <trkpt lat="42.350586" lon="2.8942764">
        <time>2022-09-26T05:39:51Z</time>
      </trkpt>
      <trkpt lat="42.350574" lon="2.8942025">
        <time>2022-09-26T05:39:57Z</time>
      </trkpt>
      <trkpt lat="42.350563" lon="2.8941295">
        <time>2022-09-26T05:40:03Z</time>
      </trkpt>
      <trkpt lat="42.350548" lon="2.8940647">
        <time>2022-09-26T05:40:08Z</time>
      </trkpt>
      <trkpt lat="42.350533" lon="2.893985">
        <time>2022-09-26T05:40:14Z</time>
      </trkpt>
      <trkpt lat="42.350502" lon="2.8939486">
        <time>2022-09-26T05:40:19Z</time>
      </trkpt>
      <trkpt lat="42.350433" lon="2.8939807">
        <time>2022-09-26T05:40:26Z</time>
      </trkpt>
      <trkpt lat="42.3504" lon="2.894024">
        <time>2022-09-26T05:40:30Z</time>
      </trkpt>
      <trkpt lat="42.35037" lon="2.894092">
        <time>2022-09-26T05:40:35Z</time>
      </trkpt>
      <trkpt lat="42.35033" lon="2.8941274">
        <time>2022-09-26T05:40:40Z</time>
      </trkpt>
      <trkpt lat="42.350277" lon="2.8941567">
        <time>2022-09-26T05:40:46Z</time>
      </trkpt>
      <trkpt lat="42.350224" lon="2.8941646">
        <time>2022-09-26T05:40:52Z</time>
      </trkpt>
      <trkpt lat="42.350166" lon="2.894149">
        <time>2022-09-26T05:40:58Z</time>
      </trkpt>
      <trkpt lat="42.350113" lon="2.8941333">
        <time>2022-09-26T05:41:04Z</time>
      </trkpt>
      <trkpt lat="42.350067" lon="2.8941123">
        <time>2022-09-26T05:41:09Z</time>
      </trkpt>
      <trkpt lat="42.350014" lon="2.8940954">
        <time>2022-09-26T05:41:14Z</time>
      </trkpt>
      <trkpt lat="42.34996" lon="2.894087">
        <time>2022-09-26T05:41:19Z</time>
      </trkpt>
      <trkpt lat="42.3499" lon="2.8940828">
        <time>2022-09-26T05:41:26Z</time>
      </trkpt>
      <trkpt lat="42.34982" lon="2.8940468">
        <time>2022-09-26T05:41:34Z</time>
      </trkpt>
      <trkpt lat="42.349808" lon="2.8940313">
        <time>2022-09-26T05:41:38Z</time>
      </trkpt>
      <trkpt lat="42.349773" lon="2.8939626">
        <time>2022-09-26T05:41:45Z</time>
      </trkpt>
      <trkpt lat="42.349735" lon="2.8939273">
        <time>2022-09-26T05:41:50Z</time>
      </trkpt>
      <trkpt lat="42.34969" lon="2.8938684">
        <time>2022-09-26T05:41:56Z</time>
      </trkpt>
      <trkpt lat="42.34958" lon="2.8937817">
        <time>2022-09-26T05:42:28Z</time>
      </trkpt>
      <trkpt lat="42.349556" lon="2.8937614">
        <time>2022-09-26T05:43:16Z</time>
      </trkpt>
      <trkpt lat="42.349518" lon="2.8936777">
        <time>2022-09-26T05:43:22Z</time>
      </trkpt>
      <trkpt lat="42.34949" lon="2.8935819">
        <time>2022-09-26T05:43:26Z</time>
      </trkpt>
      <trkpt lat="42.34946" lon="2.8934753">
        <time>2022-09-26T05:43:31Z</time>
      </trkpt>
      <trkpt lat="42.349445" lon="2.893443">
        <time>2022-09-26T05:43:34Z</time>
      </trkpt>
      <trkpt lat="42.349415" lon="2.8933687">
        <time>2022-09-26T05:43:38Z</time>
      </trkpt>
      <trkpt lat="42.34939" lon="2.893306">
        <time>2022-09-26T05:43:42Z</time>
      </trkpt>
      <trkpt lat="42.349354" lon="2.8932433">
        <time>2022-09-26T05:43:47Z</time>
      </trkpt>
      <trkpt lat="42.34932" lon="2.8931906">
        <time>2022-09-26T05:43:51Z</time>
      </trkpt>
      <trkpt lat="42.34927" lon="2.8931284">
        <time>2022-09-26T05:43:58Z</time>
      </trkpt>
      <trkpt lat="42.349224" lon="2.8930717">
        <time>2022-09-26T05:44:04Z</time>
      </trkpt>
      <trkpt lat="42.349174" lon="2.893052">
        <time>2022-09-26T05:44:09Z</time>
      </trkpt>
      <trkpt lat="42.34913" lon="2.893069">
        <time>2022-09-26T05:44:16Z</time>
      </trkpt>
      <trkpt lat="42.349083" lon="2.893069">
        <time>2022-09-26T05:44:35Z</time>
      </trkpt>
      <trkpt lat="42.34914" lon="2.8930726">
        <time>2022-09-26T05:44:41Z</time>
      </trkpt>
      <trkpt lat="42.349186" lon="2.8930554">
        <time>2022-09-26T05:44:47Z</time>
      </trkpt>
      <trkpt lat="42.349194" lon="2.8929837">
        <time>2022-09-26T05:44:54Z</time>
      </trkpt>
      <trkpt lat="42.34919" lon="2.8929508">
        <time>2022-09-26T05:45:07Z</time>
      </trkpt>
      <trkpt lat="42.349243" lon="2.8930893">
        <time>2022-09-26T05:45:39Z</time>
      </trkpt>
      <trkpt lat="42.349277" lon="2.8931367">
        <time>2022-09-26T05:45:43Z</time>
      </trkpt>
      <trkpt lat="42.34932" lon="2.8931994">
        <time>2022-09-26T05:45:48Z</time>
      </trkpt>
      <trkpt lat="42.34935" lon="2.8932474">
        <time>2022-09-26T05:45:52Z</time>
      </trkpt>
      <trkpt lat="42.349392" lon="2.893312">
        <time>2022-09-26T05:45:57Z</time>
      </trkpt>
      <trkpt lat="42.34942" lon="2.89338">
        <time>2022-09-26T05:46:02Z</time>
      </trkpt>
      <trkpt lat="42.349434" lon="2.8934417">
        <time>2022-09-26T05:46:06Z</time>
      </trkpt>
      <trkpt lat="42.34945" lon="2.8935146">
        <time>2022-09-26T05:46:11Z</time>
      </trkpt>
      <trkpt lat="42.34947" lon="2.8935847">
        <time>2022-09-26T05:46:16Z</time>
      </trkpt>
      <trkpt lat="42.34949" lon="2.8936596">
        <time>2022-09-26T05:46:21Z</time>
      </trkpt>
      <trkpt lat="42.349537" lon="2.8937025">
        <time>2022-09-26T05:46:27Z</time>
      </trkpt>
      <trkpt lat="42.349586" lon="2.893719">
        <time>2022-09-26T05:46:33Z</time>
      </trkpt>
      <trkpt lat="42.34964" lon="2.8937037">
        <time>2022-09-26T05:46:39Z</time>
      </trkpt>
      <trkpt lat="42.34968" lon="2.8936653">
        <time>2022-09-26T05:46:45Z</time>
      </trkpt>
      <trkpt lat="42.349728" lon="2.8936427">
        <time>2022-09-26T05:46:52Z</time>
      </trkpt>
      <trkpt lat="42.34978" lon="2.8936234">
        <time>2022-09-26T05:46:58Z</time>
      </trkpt>
      <trkpt lat="42.349834" lon="2.893591">
        <time>2022-09-26T05:47:06Z</time>
      </trkpt>
      <trkpt lat="42.349873" lon="2.893544">
        <time>2022-09-26T05:47:12Z</time>
      </trkpt>
      <trkpt lat="42.349884" lon="2.8934746">
        <time>2022-09-26T05:47:19Z</time>
      </trkpt>
      <trkpt lat="42.349895" lon="2.8934026">
        <time>2022-09-26T05:47:26Z</time>
      </trkpt>
      <trkpt lat="42.34991" lon="2.893337">
        <time>2022-09-26T05:47:33Z</time>
      </trkpt>
      <trkpt lat="42.349953" lon="2.8932505">
        <time>2022-09-26T05:48:06Z</time>
      </trkpt>
      <trkpt lat="42.349934" lon="2.8931785">
        <time>2022-09-26T05:48:11Z</time>
      </trkpt>
      <trkpt lat="42.349922" lon="2.8931177">
        <time>2022-09-26T05:48:16Z</time>
      </trkpt>
      <trkpt lat="42.34989" lon="2.8929887">
        <time>2022-09-26T05:48:43Z</time>
      </trkpt>
      <trkpt lat="42.349903" lon="2.892838">
        <time>2022-09-26T05:49:07Z</time>
      </trkpt>
      <trkpt lat="42.34991" lon="2.8927658">
        <time>2022-09-26T05:49:13Z</time>
      </trkpt>
      <trkpt lat="42.34992" lon="2.8926947">
        <time>2022-09-26T05:49:19Z</time>
      </trkpt>
      <trkpt lat="42.349922" lon="2.8926308">
        <time>2022-09-26T05:49:25Z</time>
      </trkpt>
      <trkpt lat="42.349915" lon="2.8925593">
        <time>2022-09-26T05:49:32Z</time>
      </trkpt>
      <trkpt lat="42.349915" lon="2.892485">
        <time>2022-09-26T05:49:39Z</time>
      </trkpt>
      <trkpt lat="42.349937" lon="2.8924415">
        <time>2022-09-26T05:50:08Z</time>
      </trkpt>
      <trkpt lat="42.349987" lon="2.8924747">
        <time>2022-09-26T05:50:14Z</time>
      </trkpt>
      <trkpt lat="42.350025" lon="2.8925195">
        <time>2022-09-26T05:50:19Z</time>
      </trkpt>
      <trkpt lat="42.350067" lon="2.8925743">
        <time>2022-09-26T05:50:25Z</time>
      </trkpt>
      <trkpt lat="42.35011" lon="2.8926084">
        <time>2022-09-26T05:50:40Z</time>
      </trkpt>
      <trkpt lat="42.350155" lon="2.892637">
        <time>2022-09-26T05:50:45Z</time>
      </trkpt>
      <trkpt lat="42.350216" lon="2.8926613">
        <time>2022-09-26T05:50:51Z</time>
      </trkpt>
      <trkpt lat="42.350254" lon="2.8926735">
        <time>2022-09-26T05:51:32Z</time>
      </trkpt>
      <trkpt lat="42.350304" lon="2.8926604">
        <time>2022-09-26T05:51:36Z</time>
      </trkpt>
      <trkpt lat="42.35035" lon="2.892629">
        <time>2022-09-26T05:51:40Z</time>
      </trkpt>
      <trkpt lat="42.350395" lon="2.892577">
        <time>2022-09-26T05:51:45Z</time>
      </trkpt>
      <trkpt lat="42.35041" lon="2.892514">
        <time>2022-09-26T05:51:50Z</time>
      </trkpt>
      <trkpt lat="42.35043" lon="2.8924537">
        <time>2022-09-26T05:51:55Z</time>
      </trkpt>
      <trkpt lat="42.350437" lon="2.8923783">
        <time>2022-09-26T05:52:02Z</time>
      </trkpt>
      <trkpt lat="42.35042" lon="2.8923078">
        <time>2022-09-26T05:52:08Z</time>
      </trkpt>
      <trkpt lat="42.3504" lon="2.892241">
        <time>2022-09-26T05:52:14Z</time>
      </trkpt>
      <trkpt lat="42.35037" lon="2.8921783">
        <time>2022-09-26T05:52:20Z</time>
      </trkpt>
      <trkpt lat="42.350338" lon="2.8921216">
        <time>2022-09-26T05:52:25Z</time>
      </trkpt>
      <trkpt lat="42.350334" lon="2.892052">
        <time>2022-09-26T05:52:33Z</time>
      </trkpt>
      <trkpt lat="42.350323" lon="2.8919673">
        <time>2022-09-26T05:53:17Z</time>
      </trkpt>
      <trkpt lat="42.350372" lon="2.8919132">
        <time>2022-09-26T05:53:22Z</time>
      </trkpt>
      <trkpt lat="42.350414" lon="2.891864">
        <time>2022-09-26T05:53:26Z</time>
      </trkpt>
      <trkpt lat="42.350464" lon="2.891827">
        <time>2022-09-26T05:53:31Z</time>
      </trkpt>
      <trkpt lat="42.35051" lon="2.8917887">
        <time>2022-09-26T05:53:36Z</time>
      </trkpt>
      <trkpt lat="42.350567" lon="2.891757">
        <time>2022-09-26T05:53:42Z</time>
      </trkpt>
      <trkpt lat="42.3506" lon="2.8917227">
        <time>2022-09-26T05:53:47Z</time>
      </trkpt>
      <trkpt lat="42.35063" lon="2.8916578">
        <time>2022-09-26T05:53:54Z</time>
      </trkpt>
      <trkpt lat="42.35065" lon="2.891592">
        <time>2022-09-26T05:54:01Z</time>
      </trkpt>
      <trkpt lat="42.350647" lon="2.8915217">
        <time>2022-09-26T05:54:08Z</time>
      </trkpt>
      <trkpt lat="42.350643" lon="2.8914216">
        <time>2022-09-26T05:54:25Z</time>
      </trkpt>
      <trkpt lat="42.350643" lon="2.8913567">
        <time>2022-09-26T05:54:30Z</time>
      </trkpt>
      <trkpt lat="42.35064" lon="2.8912857">
        <time>2022-09-26T05:54:36Z</time>
      </trkpt>
      <trkpt lat="42.350624" lon="2.8912249">
        <time>2022-09-26T05:54:45Z</time>
      </trkpt>
      <trkpt lat="42.350662" lon="2.8912134">
        <time>2022-09-26T05:55:16Z</time>
      </trkpt>
      <trkpt lat="42.350666" lon="2.891132">
        <time>2022-09-26T05:55:20Z</time>
      </trkpt>
      <trkpt lat="42.350662" lon="2.8910775">
        <time>2022-09-26T05:55:23Z</time>
      </trkpt>
      <trkpt lat="42.350655" lon="2.8910036">
        <time>2022-09-26T05:55:28Z</time>
      </trkpt>
      <trkpt lat="42.35063" lon="2.890934">
        <time>2022-09-26T05:55:34Z</time>
      </trkpt>
      <trkpt lat="42.350624" lon="2.890861">
        <time>2022-09-26T05:55:40Z</time>
      </trkpt>
      <trkpt lat="42.35062" lon="2.890789">
        <time>2022-09-26T05:55:47Z</time>
      </trkpt>
      <trkpt lat="42.350613" lon="2.890725">
        <time>2022-09-26T05:55:52Z</time>
      </trkpt>
      <trkpt lat="42.35058" lon="2.8906581">
        <time>2022-09-26T05:55:58Z</time>
      </trkpt>
      <trkpt lat="42.350548" lon="2.8906026">
        <time>2022-09-26T05:56:04Z</time>
      </trkpt>
      <trkpt lat="42.350536" lon="2.8905437">
        <time>2022-09-26T05:56:10Z</time>
      </trkpt>
      <trkpt lat="42.35052" lon="2.8904836">
        <time>2022-09-26T05:56:21Z</time>
      </trkpt>
      <trkpt lat="42.350555" lon="2.890442">
        <time>2022-09-26T05:56:36Z</time>
      </trkpt>
      <trkpt lat="42.350613" lon="2.890371">
        <time>2022-09-26T05:56:55Z</time>
      </trkpt>
      <trkpt lat="42.35063" lon="2.890304">
        <time>2022-09-26T05:57:12Z</time>
      </trkpt>
      <trkpt lat="42.350643" lon="2.8902438">
        <time>2022-09-26T05:57:23Z</time>
      </trkpt>
      <trkpt lat="42.35068" lon="2.8901503">
        <time>2022-09-26T05:58:19Z</time>
      </trkpt>
      <trkpt lat="42.350693" lon="2.890082">
        <time>2022-09-26T05:58:25Z</time>
      </trkpt>
      <trkpt lat="42.350708" lon="2.890021">
        <time>2022-09-26T05:58:32Z</time>
      </trkpt>
      <trkpt lat="42.350758" lon="2.8899786">
        <time>2022-09-26T05:58:41Z</time>
      </trkpt>
      <trkpt lat="42.350807" lon="2.8899646">
        <time>2022-09-26T05:58:48Z</time>
      </trkpt>
      <trkpt lat="42.350857" lon="2.889947">
        <time>2022-09-26T05:58:56Z</time>
      </trkpt>
      <trkpt lat="42.350906" lon="2.8899262">
        <time>2022-09-26T05:59:04Z</time>
      </trkpt>
      <trkpt lat="42.350956" lon="2.8898857">
        <time>2022-09-26T05:59:14Z</time>
      </trkpt>
      <trkpt lat="42.351" lon="2.8898637">
        <time>2022-09-26T05:59:20Z</time>
      </trkpt>
      <trkpt lat="42.351013" lon="2.8897836">
        <time>2022-09-26T05:59:34Z</time>
      </trkpt>
      <trkpt lat="42.350983" lon="2.8897302">
        <time>2022-09-26T05:59:41Z</time>
      </trkpt>
      <trkpt lat="42.35096" lon="2.8896687">
        <time>2022-09-26T05:59:49Z</time>
      </trkpt>
      <trkpt lat="42.350937" lon="2.8896008">
        <time>2022-09-26T05:59:58Z</time>
      </trkpt>
      <trkpt lat="42.35091" lon="2.889543">
        <time>2022-09-26T06:00:08Z</time>
      </trkpt>
      <trkpt lat="42.3509" lon="2.8894787">
        <time>2022-09-26T06:00:19Z</time>
      </trkpt>
      <trkpt lat="42.350906" lon="2.8893924">
        <time>2022-09-26T06:00:55Z</time>
      </trkpt>
      <trkpt lat="42.35088" lon="2.889338">
        <time>2022-09-26T06:01:02Z</time>
      </trkpt>
      <trkpt lat="42.350838" lon="2.8892944">
        <time>2022-09-26T06:01:11Z</time>
      </trkpt>
      <trkpt lat="42.350796" lon="2.8892426">
        <time>2022-09-26T06:01:22Z</time>
      </trkpt>
      <trkpt lat="42.350758" lon="2.8891964">
        <time>2022-09-26T06:01:31Z</time>
      </trkpt>
      <trkpt lat="42.3507" lon="2.8891716">
        <time>2022-09-26T06:01:41Z</time>
      </trkpt>
      <trkpt lat="42.350655" lon="2.889136">
        <time>2022-09-26T06:01:49Z</time>
      </trkpt>
      <trkpt lat="42.35061" lon="2.889107">
        <time>2022-09-26T06:01:58Z</time>
      </trkpt>
      <trkpt lat="42.350586" lon="2.889086">
        <time>2022-09-26T06:02:51Z</time>
      </trkpt>
      <trkpt lat="42.350563" lon="2.8890147">
        <time>2022-09-26T06:02:55Z</time>
      </trkpt>
      <trkpt lat="42.35054" lon="2.8889318">
        <time>2022-09-26T06:02:59Z</time>
      </trkpt>
      <trkpt lat="42.350525" lon="2.8888733">
        <time>2022-09-26T06:03:04Z</time>
      </trkpt>
      <trkpt lat="42.350536" lon="2.8888137">
        <time>2022-09-26T06:03:13Z</time>
      </trkpt>
      <trkpt lat="42.350544" lon="2.8887424">
        <time>2022-09-26T06:03:24Z</time>
      </trkpt>
      <trkpt lat="42.350594" lon="2.8887267">
        <time>2022-09-26T06:03:35Z</time>
      </trkpt>
      <trkpt lat="42.350624" lon="2.8886554">
        <time>2022-09-26T06:04:14Z</time>
      </trkpt>
      <trkpt lat="42.350655" lon="2.8885818">
        <time>2022-09-26T06:04:41Z</time>
      </trkpt>
      <trkpt lat="42.35067" lon="2.888495">
        <time>2022-09-26T06:04:46Z</time>
      </trkpt>
      <trkpt lat="42.350677" lon="2.888416">
        <time>2022-09-26T06:04:50Z</time>
      </trkpt>
      <trkpt lat="42.350677" lon="2.8883426">
        <time>2022-09-26T06:04:54Z</time>
      </trkpt>
      <trkpt lat="42.350685" lon="2.8882594">
        <time>2022-09-26T06:04:59Z</time>
      </trkpt>
      <trkpt lat="42.35069" lon="2.8881905">
        <time>2022-09-26T06:05:04Z</time>
      </trkpt>
      <trkpt lat="42.35066" lon="2.888141">
        <time>2022-09-26T06:05:12Z</time>
      </trkpt>
      <trkpt lat="42.35071" lon="2.888144">
        <time>2022-09-26T06:05:48Z</time>
      </trkpt>
      <trkpt lat="42.350746" lon="2.888096">
        <time>2022-09-26T06:05:53Z</time>
      </trkpt>
      <trkpt lat="42.350792" lon="2.8880498">
        <time>2022-09-26T06:05:58Z</time>
      </trkpt>
      <trkpt lat="42.35074" lon="2.888017">
        <time>2022-09-26T06:06:06Z</time>
      </trkpt>
      <trkpt lat="42.35071" lon="2.8879592">
        <time>2022-09-26T06:06:11Z</time>
      </trkpt>
      <trkpt lat="42.350697" lon="2.8878853">
        <time>2022-09-26T06:06:17Z</time>
      </trkpt>
      <trkpt lat="42.350693" lon="2.8878167">
        <time>2022-09-26T06:06:23Z</time>
      </trkpt>
      <trkpt lat="42.35071" lon="2.887776">
        <time>2022-09-26T06:10:01Z</time>
      </trkpt>
      <trkpt lat="42.350685" lon="2.8877094">
        <time>2022-09-26T06:10:05Z</time>
      </trkpt>
      <trkpt lat="42.350655" lon="2.8876483">
        <time>2022-09-26T06:10:09Z</time>
      </trkpt>
      <trkpt lat="42.350685" lon="2.8876803">
        <time>2022-09-26T06:10:39Z</time>
      </trkpt>
      <trkpt lat="42.350708" lon="2.8877594">
        <time>2022-09-26T06:10:45Z</time>
      </trkpt>
      <trkpt lat="42.35072" lon="2.887788">
        <time>2022-09-26T06:10:55Z</time>
      </trkpt>
      <trkpt lat="42.350742" lon="2.8874016">
        <time>2022-09-26T06:15:36Z</time>
      </trkpt>
      <trkpt lat="42.350838" lon="2.887975">
        <time>2022-09-26T06:21:23Z</time>
      </trkpt>
      <trkpt lat="42.350693" lon="2.8878264">
        <time>2022-09-26T06:21:38Z</time>
      </trkpt>
      <trkpt lat="42.35065" lon="2.8877833">
        <time>2022-09-26T06:23:31Z</time>
      </trkpt>
      <trkpt lat="42.35069" lon="2.8878753">
        <time>2022-09-26T06:24:09Z</time>
      </trkpt>
      <trkpt lat="42.350708" lon="2.887943">
        <time>2022-09-26T06:24:12Z</time>
      </trkpt>
      <trkpt lat="42.35073" lon="2.8880067">
        <time>2022-09-26T06:24:18Z</time>
      </trkpt>
      <trkpt lat="42.350735" lon="2.8880153">
        <time>2022-09-26T06:24:48Z</time>
      </trkpt>
      <trkpt lat="42.350815" lon="2.8880236">
        <time>2022-09-26T06:24:53Z</time>
      </trkpt>
      <trkpt lat="42.35087" lon="2.888024">
        <time>2022-09-26T06:24:56Z</time>
      </trkpt>
      <trkpt lat="42.350925" lon="2.8880196">
        <time>2022-09-26T06:25:00Z</time>
      </trkpt>
      <trkpt lat="42.350967" lon="2.888014">
        <time>2022-09-26T06:25:04Z</time>
      </trkpt>
      <trkpt lat="42.351025" lon="2.8879898">
        <time>2022-09-26T06:25:10Z</time>
      </trkpt>
      <trkpt lat="42.351067" lon="2.8879633">
        <time>2022-09-26T06:25:14Z</time>
      </trkpt>
      <trkpt lat="42.35112" lon="2.8879166">
        <time>2022-09-26T06:25:19Z</time>
      </trkpt>
      <trkpt lat="42.351162" lon="2.8878634">
        <time>2022-09-26T06:25:23Z</time>
      </trkpt>
      <trkpt lat="42.351196" lon="2.8878052">
        <time>2022-09-26T06:25:27Z</time>
      </trkpt>
      <trkpt lat="42.35122" lon="2.8877556">
        <time>2022-09-26T06:25:32Z</time>
      </trkpt>
      <trkpt lat="42.351166" lon="2.8877435">
        <time>2022-09-26T06:25:42Z</time>
      </trkpt>
      <trkpt lat="42.351135" lon="2.8877375">
        <time>2022-09-26T06:26:20Z</time>
      </trkpt>
      <trkpt lat="42.351093" lon="2.887627">
        <time>2022-09-26T06:26:36Z</time>
      </trkpt>
      <trkpt lat="42.351097" lon="2.8874364">
        <time>2022-09-26T06:27:19Z</time>
      </trkpt>
      <trkpt lat="42.35112" lon="2.8873713">
        <time>2022-09-26T06:27:25Z</time>
      </trkpt>
      <trkpt lat="42.351074" lon="2.8873746">
        <time>2022-09-26T06:27:35Z</time>
      </trkpt>
      <trkpt lat="42.351048" lon="2.8874125">
        <time>2022-09-26T06:27:46Z</time>
      </trkpt>
      <trkpt lat="42.351048" lon="2.8875084">
        <time>2022-09-26T06:27:57Z</time>
      </trkpt>
      <trkpt lat="42.35105" lon="2.8875053">
        <time>2022-09-26T06:28:50Z</time>
      </trkpt>
      <trkpt lat="42.351063" lon="2.8874826">
        <time>2022-09-26T06:33:21Z</time>
      </trkpt>
      <trkpt lat="42.351044" lon="2.8874028">
        <time>2022-09-26T06:33:27Z</time>
      </trkpt>
      <trkpt lat="42.35105" lon="2.88735">
        <time>2022-09-26T06:33:32Z</time>
      </trkpt>
      <trkpt lat="42.351105" lon="2.8873255">
        <time>2022-09-26T06:33:43Z</time>
      </trkpt>
      <trkpt lat="42.351154" lon="2.8874016">
        <time>2022-09-26T06:34:19Z</time>
      </trkpt>
      <trkpt lat="42.351173" lon="2.8874643">
        <time>2022-09-26T06:34:23Z</time>
      </trkpt>
      <trkpt lat="42.35118" lon="2.887528">
        <time>2022-09-26T06:34:30Z</time>
      </trkpt>
      <trkpt lat="42.35114" lon="2.887593">
        <time>2022-09-26T06:34:45Z</time>
      </trkpt>
      <trkpt lat="42.35115" lon="2.8875546">
        <time>2022-09-26T06:35:05Z</time>
      </trkpt>
      <trkpt lat="42.35121" lon="2.8875477">
        <time>2022-09-26T06:35:19Z</time>
      </trkpt>
      <trkpt lat="42.35117" lon="2.8876066">
        <time>2022-09-26T06:35:27Z</time>
      </trkpt>
      <trkpt lat="42.351128" lon="2.8876534">
        <time>2022-09-26T06:35:33Z</time>
      </trkpt>
      <trkpt lat="42.351143" lon="2.8876996">
        <time>2022-09-26T06:35:44Z</time>
      </trkpt>
      <trkpt lat="42.35119" lon="2.8877337">
        <time>2022-09-26T06:35:53Z</time>
      </trkpt>
      <trkpt lat="42.351246" lon="2.8877056">
        <time>2022-09-26T06:35:59Z</time>
      </trkpt>
      <trkpt lat="42.35128" lon="2.8876553">
        <time>2022-09-26T06:36:03Z</time>
      </trkpt>
      <trkpt lat="42.351303" lon="2.8875911">
        <time>2022-09-26T06:36:07Z</time>
      </trkpt>
      <trkpt lat="42.351322" lon="2.8875213">
        <time>2022-09-26T06:36:11Z</time>
      </trkpt>
      <trkpt lat="42.35133" lon="2.8874524">
        <time>2022-09-26T06:36:15Z</time>
      </trkpt>
      <trkpt lat="42.351334" lon="2.8873794">
        <time>2022-09-26T06:36:19Z</time>
      </trkpt>
      <trkpt lat="42.351345" lon="2.8873012">
        <time>2022-09-26T06:36:24Z</time>
      </trkpt>
      <trkpt lat="42.351357" lon="2.8872137">
        <time>2022-09-26T06:36:29Z</time>
      </trkpt>
      <trkpt lat="42.35136" lon="2.887144">
        <time>2022-09-26T06:36:33Z</time>
      </trkpt>
      <trkpt lat="42.351376" lon="2.8870547">
        <time>2022-09-26T06:36:38Z</time>
      </trkpt>
      <trkpt lat="42.351376" lon="2.8869762">
        <time>2022-09-26T06:36:42Z</time>
      </trkpt>
      <trkpt lat="42.35138" lon="2.8869028">
        <time>2022-09-26T06:36:46Z</time>
      </trkpt>
      <trkpt lat="42.351402" lon="2.8868253">
        <time>2022-09-26T06:36:51Z</time>
      </trkpt>
      <trkpt lat="42.35142" lon="2.8867514">
        <time>2022-09-26T06:36:56Z</time>
      </trkpt>
      <trkpt lat="42.35144" lon="2.8866823">
        <time>2022-09-26T06:37:01Z</time>
      </trkpt>
      <trkpt lat="42.35147" lon="2.8866224">
        <time>2022-09-26T06:37:05Z</time>
      </trkpt>
      <trkpt lat="42.351513" lon="2.8865714">
        <time>2022-09-26T06:37:09Z</time>
      </trkpt>
      <trkpt lat="42.35155" lon="2.8865068">
        <time>2022-09-26T06:37:14Z</time>
      </trkpt>
      <trkpt lat="42.351585" lon="2.8864577">
        <time>2022-09-26T06:37:18Z</time>
      </trkpt>
      <trkpt lat="42.35162" lon="2.886413">
        <time>2022-09-26T06:37:22Z</time>
      </trkpt>
      <trkpt lat="42.351673" lon="2.8863614">
        <time>2022-09-26T06:37:27Z</time>
      </trkpt>
      <trkpt lat="42.35172" lon="2.8863056">
        <time>2022-09-26T06:37:32Z</time>
      </trkpt>
      <trkpt lat="42.35176" lon="2.8862514">
        <time>2022-09-26T06:37:36Z</time>
      </trkpt>
      <trkpt lat="42.351795" lon="2.8861964">
        <time>2022-09-26T06:37:40Z</time>
      </trkpt>
      <trkpt lat="42.35183" lon="2.8861446">
        <time>2022-09-26T06:37:44Z</time>
      </trkpt>
      <trkpt lat="42.351868" lon="2.8860898">
        <time>2022-09-26T06:37:48Z</time>
      </trkpt>
      <trkpt lat="42.35191" lon="2.8860288">
        <time>2022-09-26T06:37:52Z</time>
      </trkpt>
      <trkpt lat="42.351944" lon="2.8859873">
        <time>2022-09-26T06:37:55Z</time>
      </trkpt>
      <trkpt lat="42.351994" lon="2.8859327">
        <time>2022-09-26T06:37:59Z</time>
      </trkpt>
      <trkpt lat="42.35203" lon="2.885864">
        <time>2022-09-26T06:38:03Z</time>
      </trkpt>
      <trkpt lat="42.352066" lon="2.8858087">
        <time>2022-09-26T06:38:07Z</time>
      </trkpt>
      <trkpt lat="42.352097" lon="2.8857546">
        <time>2022-09-26T06:38:11Z</time>
      </trkpt>
      <trkpt lat="42.352123" lon="2.8856885">
        <time>2022-09-26T06:38:15Z</time>
      </trkpt>
      <trkpt lat="42.35215" lon="2.885621">
        <time>2022-09-26T06:38:19Z</time>
      </trkpt>
      <trkpt lat="42.352173" lon="2.8855655">
        <time>2022-09-26T06:38:23Z</time>
      </trkpt>
      <trkpt lat="42.352203" lon="2.8854938">
        <time>2022-09-26T06:38:28Z</time>
      </trkpt>
      <trkpt lat="42.352215" lon="2.8854086">
        <time>2022-09-26T06:38:33Z</time>
      </trkpt>
      <trkpt lat="42.35221" lon="2.8853374">
        <time>2022-09-26T06:38:37Z</time>
      </trkpt>
      <trkpt lat="42.352192" lon="2.885256">
        <time>2022-09-26T06:38:42Z</time>
      </trkpt>
      <trkpt lat="42.352203" lon="2.8851817">
        <time>2022-09-26T06:38:47Z</time>
      </trkpt>
      <trkpt lat="42.352207" lon="2.8851087">
        <time>2022-09-26T06:38:52Z</time>
      </trkpt>
      <trkpt lat="42.35221" lon="2.8850367">
        <time>2022-09-26T06:38:57Z</time>
      </trkpt>
      <trkpt lat="42.35223" lon="2.884968">
        <time>2022-09-26T06:39:02Z</time>
      </trkpt>
      <trkpt lat="42.352245" lon="2.8849027">
        <time>2022-09-26T06:39:06Z</time>
      </trkpt>
      <trkpt lat="42.35227" lon="2.8848186">
        <time>2022-09-26T06:39:11Z</time>
      </trkpt>
      <trkpt lat="42.352245" lon="2.884693">
        <time>2022-09-26T06:39:39Z</time>
      </trkpt>
      <trkpt lat="42.35219" lon="2.8846939">
        <time>2022-09-26T06:39:45Z</time>
      </trkpt>
      <trkpt lat="42.35216" lon="2.8846602">
        <time>2022-09-26T06:39:53Z</time>
      </trkpt>
      <trkpt lat="42.35218" lon="2.8845692">
        <time>2022-09-26T06:39:59Z</time>
      </trkpt>
      <trkpt lat="42.352192" lon="2.8845036">
        <time>2022-09-26T06:40:04Z</time>
      </trkpt>
      <trkpt lat="42.35222" lon="2.8844342">
        <time>2022-09-26T06:40:10Z</time>
      </trkpt>
      <trkpt lat="42.35224" lon="2.8843675">
        <time>2022-09-26T06:40:15Z</time>
      </trkpt>
      <trkpt lat="42.35225" lon="2.8843026">
        <time>2022-09-26T06:40:19Z</time>
      </trkpt>
      <trkpt lat="42.35227" lon="2.884231">
        <time>2022-09-26T06:40:24Z</time>
      </trkpt>
      <trkpt lat="42.352272" lon="2.88416">
        <time>2022-09-26T06:40:28Z</time>
      </trkpt>
      <trkpt lat="42.352283" lon="2.8840978">
        <time>2022-09-26T06:40:33Z</time>
      </trkpt>
      <trkpt lat="42.352325" lon="2.8840566">
        <time>2022-09-26T06:40:39Z</time>
      </trkpt>
      <trkpt lat="42.35234" lon="2.8839824">
        <time>2022-09-26T06:40:46Z</time>
      </trkpt>
      <trkpt lat="42.35233" lon="2.8838897">
        <time>2022-09-26T06:40:51Z</time>
      </trkpt>
      <trkpt lat="42.35232" lon="2.8838148">
        <time>2022-09-26T06:40:55Z</time>
      </trkpt>
      <trkpt lat="42.352318" lon="2.883746">
        <time>2022-09-26T06:40:59Z</time>
      </trkpt>
      <trkpt lat="42.352306" lon="2.883668">
        <time>2022-09-26T06:41:03Z</time>
      </trkpt>
      <trkpt lat="42.35229" lon="2.883594">
        <time>2022-09-26T06:41:07Z</time>
      </trkpt>
      <trkpt lat="42.352272" lon="2.8835216">
        <time>2022-09-26T06:41:11Z</time>
      </trkpt>
      <trkpt lat="42.35227" lon="2.8834534">
        <time>2022-09-26T06:41:15Z</time>
      </trkpt>
      <trkpt lat="42.352253" lon="2.883379">
        <time>2022-09-26T06:41:19Z</time>
      </trkpt>
      <trkpt lat="42.352234" lon="2.8833">
        <time>2022-09-26T06:41:23Z</time>
      </trkpt>
      <trkpt lat="42.352215" lon="2.8832266">
        <time>2022-09-26T06:41:27Z</time>
      </trkpt>
      <trkpt lat="42.352207" lon="2.883157">
        <time>2022-09-26T06:41:31Z</time>
      </trkpt>
      <trkpt lat="42.3522" lon="2.8830802">
        <time>2022-09-26T06:41:35Z</time>
      </trkpt>
      <trkpt lat="42.352192" lon="2.8830068">
        <time>2022-09-26T06:41:39Z</time>
      </trkpt>
      <trkpt lat="42.35219" lon="2.8829408">
        <time>2022-09-26T06:41:43Z</time>
      </trkpt>
      <trkpt lat="42.35219" lon="2.8828723">
        <time>2022-09-26T06:41:48Z</time>
      </trkpt>
      <trkpt lat="42.35219" lon="2.88278">
        <time>2022-09-26T06:41:54Z</time>
      </trkpt>
      <trkpt lat="42.35216" lon="2.8827114">
        <time>2022-09-26T06:41:58Z</time>
      </trkpt>
      <trkpt lat="42.35213" lon="2.882658">
        <time>2022-09-26T06:42:02Z</time>
      </trkpt>
      <trkpt lat="42.352097" lon="2.8825936">
        <time>2022-09-26T06:42:06Z</time>
      </trkpt>
      <trkpt lat="42.352077" lon="2.882528">
        <time>2022-09-26T06:42:10Z</time>
      </trkpt>
      <trkpt lat="42.352055" lon="2.882456">
        <time>2022-09-26T06:42:15Z</time>
      </trkpt>
      <trkpt lat="42.352028" lon="2.882389">
        <time>2022-09-26T06:42:20Z</time>
      </trkpt>
      <trkpt lat="42.352005" lon="2.8823273">
        <time>2022-09-26T06:42:25Z</time>
      </trkpt>
      <trkpt lat="42.351982" lon="2.8822627">
        <time>2022-09-26T06:42:30Z</time>
      </trkpt>
      <trkpt lat="42.35195" lon="2.8821933">
        <time>2022-09-26T06:42:36Z</time>
      </trkpt>
      <trkpt lat="42.351925" lon="2.88214">
        <time>2022-09-26T06:42:41Z</time>
      </trkpt>
      <trkpt lat="42.3519" lon="2.8820684">
        <time>2022-09-26T06:42:47Z</time>
      </trkpt>
      <trkpt lat="42.351868" lon="2.8820038">
        <time>2022-09-26T06:42:52Z</time>
      </trkpt>
      <trkpt lat="42.35184" lon="2.8819513">
        <time>2022-09-26T06:42:56Z</time>
      </trkpt>
      <trkpt lat="42.35181" lon="2.8818867">
        <time>2022-09-26T06:43:01Z</time>
      </trkpt>
      <trkpt lat="42.351776" lon="2.8818266">
        <time>2022-09-26T06:43:07Z</time>
      </trkpt>
      <trkpt lat="42.351734" lon="2.8817692">
        <time>2022-09-26T06:43:12Z</time>
      </trkpt>
      <trkpt lat="42.351707" lon="2.8816943">
        <time>2022-09-26T06:43:17Z</time>
      </trkpt>
      <trkpt lat="42.35169" lon="2.88162">
        <time>2022-09-26T06:43:23Z</time>
      </trkpt>
      <trkpt lat="42.351665" lon="2.881551">
        <time>2022-09-26T06:43:28Z</time>
      </trkpt>
      <trkpt lat="42.351646" lon="2.8814843">
        <time>2022-09-26T06:43:33Z</time>
      </trkpt>
      <trkpt lat="42.35163" lon="2.8814175">
        <time>2022-09-26T06:43:38Z</time>
      </trkpt>
      <trkpt lat="42.351616" lon="2.881338">
        <time>2022-09-26T06:43:43Z</time>
      </trkpt>
      <trkpt lat="42.351597" lon="2.8812652">
        <time>2022-09-26T06:43:48Z</time>
      </trkpt>
      <trkpt lat="42.351562" lon="2.881218">
        <time>2022-09-26T06:43:52Z</time>
      </trkpt>
      <trkpt lat="42.351517" lon="2.8811538">
        <time>2022-09-26T06:43:58Z</time>
      </trkpt>
      <trkpt lat="42.351486" lon="2.8811028">
        <time>2022-09-26T06:44:02Z</time>
      </trkpt>
      <trkpt lat="42.35145" lon="2.8810434">
        <time>2022-09-26T06:44:07Z</time>
      </trkpt>
      <trkpt lat="42.35142" lon="2.880972">
        <time>2022-09-26T06:44:12Z</time>
      </trkpt>
      <trkpt lat="42.3514" lon="2.8809073">
        <time>2022-09-26T06:44:16Z</time>
      </trkpt>
      <trkpt lat="42.351376" lon="2.8808405">
        <time>2022-09-26T06:44:20Z</time>
      </trkpt>
      <trkpt lat="42.35135" lon="2.8807807">
        <time>2022-09-26T06:44:24Z</time>
      </trkpt>
      <trkpt lat="42.351322" lon="2.880724">
        <time>2022-09-26T06:44:28Z</time>
      </trkpt>
      <trkpt lat="42.351295" lon="2.8806474">
        <time>2022-09-26T06:44:33Z</time>
      </trkpt>
      <trkpt lat="42.351284" lon="2.8805637">
        <time>2022-09-26T06:44:38Z</time>
      </trkpt>
      <trkpt lat="42.35127" lon="2.8804836">
        <time>2022-09-26T06:44:43Z</time>
      </trkpt>
      <trkpt lat="42.351254" lon="2.880411">
        <time>2022-09-26T06:44:48Z</time>
      </trkpt>
      <trkpt lat="42.351242" lon="2.880339">
        <time>2022-09-26T06:44:53Z</time>
      </trkpt>
      <trkpt lat="42.351223" lon="2.8802676">
        <time>2022-09-26T06:44:58Z</time>
      </trkpt>
      <trkpt lat="42.351215" lon="2.8802009">
        <time>2022-09-26T06:45:02Z</time>
      </trkpt>
      <trkpt lat="42.351227" lon="2.880133">
        <time>2022-09-26T06:45:07Z</time>
      </trkpt>
      <trkpt lat="42.351265" lon="2.8800778">
        <time>2022-09-26T06:45:13Z</time>
      </trkpt>
      <trkpt lat="42.351295" lon="2.8800366">
        <time>2022-09-26T06:45:24Z</time>
      </trkpt>
      <trkpt lat="42.35134" lon="2.88001">
        <time>2022-09-26T06:45:33Z</time>
      </trkpt>
      <trkpt lat="42.35138" lon="2.8799536">
        <time>2022-09-26T06:45:45Z</time>
      </trkpt>
      <trkpt lat="42.351376" lon="2.8798764">
        <time>2022-09-26T06:45:54Z</time>
      </trkpt>
      <trkpt lat="42.35134" lon="2.8798246">
        <time>2022-09-26T06:45:58Z</time>
      </trkpt>
      <trkpt lat="42.351288" lon="2.8797781">
        <time>2022-09-26T06:46:03Z</time>
      </trkpt>
      <trkpt lat="42.351242" lon="2.8797386">
        <time>2022-09-26T06:46:08Z</time>
      </trkpt>
      <trkpt lat="42.35119" lon="2.8797164">
        <time>2022-09-26T06:46:14Z</time>
      </trkpt>
      <trkpt lat="42.35114" lon="2.8796906">
        <time>2022-09-26T06:46:19Z</time>
      </trkpt>
      <trkpt lat="42.35108" lon="2.879658">
        <time>2022-09-26T06:46:24Z</time>
      </trkpt>
      <trkpt lat="42.351044" lon="2.8795946">
        <time>2022-09-26T06:46:29Z</time>
      </trkpt>
      <trkpt lat="42.35102" lon="2.879513">
        <time>2022-09-26T06:46:34Z</time>
      </trkpt>
      <trkpt lat="42.351006" lon="2.879445">
        <time>2022-09-26T06:46:38Z</time>
      </trkpt>
      <trkpt lat="42.351006" lon="2.8793726">
        <time>2022-09-26T06:46:42Z</time>
      </trkpt>
      <trkpt lat="42.351006" lon="2.879296">
        <time>2022-09-26T06:46:46Z</time>
      </trkpt>
      <trkpt lat="42.351006" lon="2.8792255">
        <time>2022-09-26T06:46:50Z</time>
      </trkpt>
      <trkpt lat="42.351" lon="2.8791535">
        <time>2022-09-26T06:46:54Z</time>
      </trkpt>
      <trkpt lat="42.351" lon="2.8790746">
        <time>2022-09-26T06:46:58Z</time>
      </trkpt>
      <trkpt lat="42.350998" lon="2.878998">
        <time>2022-09-26T06:47:02Z</time>
      </trkpt>
      <trkpt lat="42.350975" lon="2.878926">
        <time>2022-09-26T06:47:07Z</time>
      </trkpt>
      <trkpt lat="42.350945" lon="2.8788636">
        <time>2022-09-26T06:47:11Z</time>
      </trkpt>
      <trkpt lat="42.35094" lon="2.8787887">
        <time>2022-09-26T06:47:15Z</time>
      </trkpt>
      <trkpt lat="42.350937" lon="2.8787167">
        <time>2022-09-26T06:47:19Z</time>
      </trkpt>
      <trkpt lat="42.350933" lon="2.8786316">
        <time>2022-09-26T06:47:24Z</time>
      </trkpt>
      <trkpt lat="42.35093" lon="2.8785453">
        <time>2022-09-26T06:47:29Z</time>
      </trkpt>
      <trkpt lat="42.35093" lon="2.878473">
        <time>2022-09-26T06:47:33Z</time>
      </trkpt>
      <trkpt lat="42.350925" lon="2.8783972">
        <time>2022-09-26T06:47:37Z</time>
      </trkpt>
      <trkpt lat="42.35093" lon="2.8783133">
        <time>2022-09-26T06:47:41Z</time>
      </trkpt>
      <trkpt lat="42.350937" lon="2.8782368">
        <time>2022-09-26T06:47:45Z</time>
      </trkpt>
      <trkpt lat="42.350945" lon="2.878172">
        <time>2022-09-26T06:47:49Z</time>
      </trkpt>
      <trkpt lat="42.350945" lon="2.87809">
        <time>2022-09-26T06:47:54Z</time>
      </trkpt>
      <trkpt lat="42.350964" lon="2.8780148">
        <time>2022-09-26T06:47:59Z</time>
      </trkpt>
      <trkpt lat="42.351" lon="2.8779507">
        <time>2022-09-26T06:48:03Z</time>
      </trkpt>
      <trkpt lat="42.35103" lon="2.8778825">
        <time>2022-09-26T06:48:07Z</time>
      </trkpt>
      <trkpt lat="42.35105" lon="2.8778296">
        <time>2022-09-26T06:48:11Z</time>
      </trkpt>
      <trkpt lat="42.3511" lon="2.8777764">
        <time>2022-09-26T06:48:16Z</time>
      </trkpt>
      <trkpt lat="42.35115" lon="2.8777187">
        <time>2022-09-26T06:48:20Z</time>
      </trkpt>
      <trkpt lat="42.351192" lon="2.87767">
        <time>2022-09-26T06:48:24Z</time>
      </trkpt>
      <trkpt lat="42.351227" lon="2.877617">
        <time>2022-09-26T06:48:28Z</time>
      </trkpt>
      <trkpt lat="42.35126" lon="2.877555">
        <time>2022-09-26T06:48:32Z</time>
      </trkpt>
      <trkpt lat="42.3513" lon="2.8774977">
        <time>2022-09-26T06:48:36Z</time>
      </trkpt>
      <trkpt lat="42.351334" lon="2.8774421">
        <time>2022-09-26T06:48:40Z</time>
      </trkpt>
      <trkpt lat="42.35137" lon="2.8773863">
        <time>2022-09-26T06:48:44Z</time>
      </trkpt>
      <trkpt lat="42.351406" lon="2.8773293">
        <time>2022-09-26T06:48:48Z</time>
      </trkpt>
      <trkpt lat="42.351437" lon="2.8772554">
        <time>2022-09-26T06:48:53Z</time>
      </trkpt>
      <trkpt lat="42.351463" lon="2.8771834">
        <time>2022-09-26T06:48:58Z</time>
      </trkpt>
      <trkpt lat="42.3515" lon="2.8771198">
        <time>2022-09-26T06:49:03Z</time>
      </trkpt>
      <trkpt lat="42.351532" lon="2.8770633">
        <time>2022-09-26T06:49:08Z</time>
      </trkpt>
      <trkpt lat="42.351574" lon="2.8770227">
        <time>2022-09-26T06:49:13Z</time>
      </trkpt>
      <trkpt lat="42.351616" lon="2.876983">
        <time>2022-09-26T06:49:18Z</time>
      </trkpt>
      <trkpt lat="42.35165" lon="2.876947">
        <time>2022-09-26T06:49:24Z</time>
      </trkpt>
      <trkpt lat="42.351685" lon="2.876912">
        <time>2022-09-26T06:49:36Z</time>
      </trkpt>
      <trkpt lat="42.351715" lon="2.876861">
        <time>2022-09-26T06:49:41Z</time>
      </trkpt>
      <trkpt lat="42.351757" lon="2.876808">
        <time>2022-09-26T06:49:47Z</time>
      </trkpt>
      <trkpt lat="42.351795" lon="2.8767574">
        <time>2022-09-26T06:49:52Z</time>
      </trkpt>
      <trkpt lat="42.35183" lon="2.8767073">
        <time>2022-09-26T06:49:57Z</time>
      </trkpt>
      <trkpt lat="42.351864" lon="2.8766503">
        <time>2022-09-26T06:50:02Z</time>
      </trkpt>
      <trkpt lat="42.351894" lon="2.876584">
        <time>2022-09-26T06:50:07Z</time>
      </trkpt>
      <trkpt lat="42.351917" lon="2.8765292">
        <time>2022-09-26T06:50:12Z</time>
      </trkpt>
      <trkpt lat="42.351955" lon="2.8764544">
        <time>2022-09-26T06:50:23Z</time>
      </trkpt>
      <trkpt lat="42.35199" lon="2.8764017">
        <time>2022-09-26T06:50:28Z</time>
      </trkpt>
      <trkpt lat="42.351994" lon="2.876331">
        <time>2022-09-26T06:50:33Z</time>
      </trkpt>
      <trkpt lat="42.351986" lon="2.876247">
        <time>2022-09-26T06:50:38Z</time>
      </trkpt>
      <trkpt lat="42.351974" lon="2.876182">
        <time>2022-09-26T06:50:42Z</time>
      </trkpt>
      <trkpt lat="42.351963" lon="2.8761168">
        <time>2022-09-26T06:50:46Z</time>
      </trkpt>
      <trkpt lat="42.351955" lon="2.8760393">
        <time>2022-09-26T06:50:51Z</time>
      </trkpt>
      <trkpt lat="42.351963" lon="2.8759696">
        <time>2022-09-26T06:50:56Z</time>
      </trkpt>
      <trkpt lat="42.351967" lon="2.875838">
        <time>2022-09-26T06:51:19Z</time>
      </trkpt>
      <trkpt lat="42.351963" lon="2.8757634">
        <time>2022-09-26T06:51:24Z</time>
      </trkpt>
      <trkpt lat="42.351963" lon="2.8756924">
        <time>2022-09-26T06:51:28Z</time>
      </trkpt>
      <trkpt lat="42.351955" lon="2.8756254">
        <time>2022-09-26T06:51:32Z</time>
      </trkpt>
      <trkpt lat="42.35196" lon="2.8755412">
        <time>2022-09-26T06:51:37Z</time>
      </trkpt>
      <trkpt lat="42.35198" lon="2.8754692">
        <time>2022-09-26T06:51:42Z</time>
      </trkpt>
      <trkpt lat="42.352005" lon="2.8753943">
        <time>2022-09-26T06:51:47Z</time>
      </trkpt>
      <trkpt lat="42.35202" lon="2.8753207">
        <time>2022-09-26T06:51:52Z</time>
      </trkpt>
      <trkpt lat="42.352047" lon="2.875257">
        <time>2022-09-26T06:51:57Z</time>
      </trkpt>
      <trkpt lat="42.352097" lon="2.875207">
        <time>2022-09-26T06:52:03Z</time>
      </trkpt>
      <trkpt lat="42.352146" lon="2.8751886">
        <time>2022-09-26T06:52:08Z</time>
      </trkpt>
      <trkpt lat="42.35217" lon="2.8752084">
        <time>2022-09-26T06:52:39Z</time>
      </trkpt>
      <trkpt lat="42.352177" lon="2.8751948">
        <time>2022-09-26T06:52:43Z</time>
      </trkpt>
      <trkpt lat="42.35218" lon="2.875185">
        <time>2022-09-26T06:53:03Z</time>
      </trkpt>
      <trkpt lat="42.35218" lon="2.875185">
        <time>2022-09-26T06:53:04Z</time>
      </trkpt>
      <trkpt lat="42.35218" lon="2.875185">
        <time>2022-09-26T06:53:05Z</time>
      </trkpt>
      <trkpt lat="42.35218" lon="2.8751853">
        <time>2022-09-26T06:53:06Z</time>
      </trkpt>
      <trkpt lat="42.352177" lon="2.8751845">
        <time>2022-09-26T06:53:07Z</time>
      </trkpt>
      <trkpt lat="42.352177" lon="2.8751826">
        <time>2022-09-26T06:53:08Z</time>
      </trkpt>
      <trkpt lat="42.352173" lon="2.8751807">
        <time>2022-09-26T06:53:09Z</time>
      </trkpt>
      <trkpt lat="42.352173" lon="2.8751793">
        <time>2022-09-26T06:53:10Z</time>
      </trkpt>
      <trkpt lat="42.35217" lon="2.8751783">
        <time>2022-09-26T06:53:11Z</time>
      </trkpt>
      <trkpt lat="42.35217" lon="2.8751776">
        <time>2022-09-26T06:53:12Z</time>
      </trkpt>
      <trkpt lat="42.35217" lon="2.8751774">
        <time>2022-09-26T06:53:13Z</time>
      </trkpt>
      <trkpt lat="42.35217" lon="2.875177">
        <time>2022-09-26T06:53:14Z</time>
      </trkpt>
      <trkpt lat="42.352173" lon="2.87517">
        <time>2022-09-26T06:53:30Z</time>
      </trkpt>
      <trkpt lat="42.352177" lon="2.8751683">
        <time>2022-09-26T06:53:31Z</time>
      </trkpt>
      <trkpt lat="42.35218" lon="2.8751647">
        <time>2022-09-26T06:53:32Z</time>
      </trkpt>
      <trkpt lat="42.352184" lon="2.8751597">
        <time>2022-09-26T06:53:33Z</time>
      </trkpt>
      <trkpt lat="42.352192" lon="2.875154">
        <time>2022-09-26T06:53:34Z</time>
      </trkpt>
      <trkpt lat="42.352196" lon="2.8751466">
        <time>2022-09-26T06:53:35Z</time>
      </trkpt>
      <trkpt lat="42.352196" lon="2.875139">
        <time>2022-09-26T06:53:36Z</time>
      </trkpt>
      <trkpt lat="42.352196" lon="2.875135">
        <time>2022-09-26T06:53:37Z</time>
      </trkpt>
      <trkpt lat="42.3522" lon="2.8751338">
        <time>2022-09-26T06:53:38Z</time>
      </trkpt>
      <trkpt lat="42.352203" lon="2.8751338">
        <time>2022-09-26T06:53:39Z</time>
      </trkpt>
      <trkpt lat="42.352203" lon="2.875135">
        <time>2022-09-26T06:53:40Z</time>
      </trkpt>
      <trkpt lat="42.3522" lon="2.8751404">
        <time>2022-09-26T06:53:41Z</time>
      </trkpt>
      <trkpt lat="42.352196" lon="2.875147">
        <time>2022-09-26T06:53:42Z</time>
      </trkpt>
      <trkpt lat="42.352192" lon="2.8751554">
        <time>2022-09-26T06:53:43Z</time>
      </trkpt>
      <trkpt lat="42.35219" lon="2.8751626">
        <time>2022-09-26T06:53:44Z</time>
      </trkpt>
      <trkpt lat="42.35218" lon="2.8751683">
        <time>2022-09-26T06:53:45Z</time>
      </trkpt>
      <trkpt lat="42.352177" lon="2.8751743">
        <time>2022-09-26T06:53:46Z</time>
      </trkpt>
      <trkpt lat="42.352173" lon="2.8751802">
        <time>2022-09-26T06:53:47Z</time>
      </trkpt>
      <trkpt lat="42.352173" lon="2.8751845">
        <time>2022-09-26T06:53:48Z</time>
      </trkpt>
      <trkpt lat="42.35217" lon="2.8751886">
        <time>2022-09-26T06:53:49Z</time>
      </trkpt>
      <trkpt lat="42.352165" lon="2.8751934">
        <time>2022-09-26T06:53:51Z</time>
      </trkpt>
      <trkpt lat="42.352158" lon="2.8751934">
        <time>2022-09-26T06:53:53Z</time>
      </trkpt>
      <trkpt lat="42.352158" lon="2.8751936">
        <time>2022-09-26T06:53:54Z</time>
      </trkpt>
      <trkpt lat="42.352158" lon="2.8751943">
        <time>2022-09-26T06:53:55Z</time>
      </trkpt>
      <trkpt lat="42.352158" lon="2.8751929">
        <time>2022-09-26T06:53:56Z</time>
      </trkpt>
      <trkpt lat="42.35216" lon="2.875191">
        <time>2022-09-26T06:53:57Z</time>
      </trkpt>
      <trkpt lat="42.352165" lon="2.8751895">
        <time>2022-09-26T06:53:58Z</time>
      </trkpt>
      <trkpt lat="42.352173" lon="2.87519">
        <time>2022-09-26T06:54:00Z</time>
      </trkpt>
      <trkpt lat="42.35211" lon="2.87516">
        <time>2022-09-26T06:54:51Z</time>
      </trkpt>
      <trkpt lat="42.35213" lon="2.87508">
        <time>2022-09-26T06:55:17Z</time>
      </trkpt>
      <trkpt lat="42.352077" lon="2.875225">
        <time>2022-09-26T06:55:54Z</time>
      </trkpt>
      <trkpt lat="42.35212" lon="2.8751066">
        <time>2022-09-26T06:56:12Z</time>
      </trkpt>
      <trkpt lat="42.35212" lon="2.8751082">
        <time>2022-09-26T06:56:13Z</time>
      </trkpt>
      <trkpt lat="42.35212" lon="2.8751087">
        <time>2022-09-26T06:56:14Z</time>
      </trkpt>
      <trkpt lat="42.35212" lon="2.875111">
        <time>2022-09-26T06:56:15Z</time>
      </trkpt>
      <trkpt lat="42.35212" lon="2.8751132">
        <time>2022-09-26T06:56:16Z</time>
      </trkpt>
      <trkpt lat="42.352123" lon="2.8751132">
        <time>2022-09-26T06:56:19Z</time>
      </trkpt>
      <trkpt lat="42.35212" lon="2.8751135">
        <time>2022-09-26T06:56:20Z</time>
      </trkpt>
      <trkpt lat="42.35212" lon="2.8751185">
        <time>2022-09-26T06:56:22Z</time>
      </trkpt>
      <trkpt lat="42.352123" lon="2.875115">
        <time>2022-09-26T06:56:39Z</time>
      </trkpt>
      <trkpt lat="42.352123" lon="2.8751132">
        <time>2022-09-26T06:56:41Z</time>
      </trkpt>
      <trkpt lat="42.352123" lon="2.8751123">
        <time>2022-09-26T06:56:42Z</time>
      </trkpt>
      <trkpt lat="42.352123" lon="2.8751097">
        <time>2022-09-26T06:56:43Z</time>
      </trkpt>
      <trkpt lat="42.352127" lon="2.8751066">
        <time>2022-09-26T06:56:44Z</time>
      </trkpt>
      <trkpt lat="42.35213" lon="2.8751023">
        <time>2022-09-26T06:56:45Z</time>
      </trkpt>
      <trkpt lat="42.352135" lon="2.8750982">
        <time>2022-09-26T06:56:46Z</time>
      </trkpt>
      <trkpt lat="42.35214" lon="2.8750944">
        <time>2022-09-26T06:56:47Z</time>
      </trkpt>
      <trkpt lat="42.35214" lon="2.8750901">
        <time>2022-09-26T06:56:48Z</time>
      </trkpt>
      <trkpt lat="42.352142" lon="2.8750863">
        <time>2022-09-26T06:56:49Z</time>
      </trkpt>
      <trkpt lat="42.352154" lon="2.8750784">
        <time>2022-09-26T06:56:51Z</time>
      </trkpt>
      <trkpt lat="42.352158" lon="2.8750784">
        <time>2022-09-26T06:56:52Z</time>
      </trkpt>
      <trkpt lat="42.35216" lon="2.8750784">
        <time>2022-09-26T06:56:53Z</time>
      </trkpt>
      <trkpt lat="42.352165" lon="2.8750784">
        <time>2022-09-26T06:56:54Z</time>
      </trkpt>
      <trkpt lat="42.35217" lon="2.8750784">
        <time>2022-09-26T06:56:55Z</time>
      </trkpt>
      <trkpt lat="42.352184" lon="2.8750834">
        <time>2022-09-26T06:57:04Z</time>
      </trkpt>
      <trkpt lat="42.352184" lon="2.8750854">
        <time>2022-09-26T06:57:05Z</time>
      </trkpt>
      <trkpt lat="42.352184" lon="2.875089">
        <time>2022-09-26T06:57:06Z</time>
      </trkpt>
      <trkpt lat="42.352184" lon="2.8750932">
        <time>2022-09-26T06:57:07Z</time>
      </trkpt>
      <trkpt lat="42.352184" lon="2.8751082">
        <time>2022-09-26T06:57:09Z</time>
      </trkpt>
      <trkpt lat="42.352184" lon="2.8751087">
        <time>2022-09-26T06:57:10Z</time>
      </trkpt>
      <trkpt lat="42.352184" lon="2.8751116">
        <time>2022-09-26T06:57:11Z</time>
      </trkpt>
      <trkpt lat="42.352184" lon="2.8751156">
        <time>2022-09-26T06:57:12Z</time>
      </trkpt>
      <trkpt lat="42.352184" lon="2.8751187">
        <time>2022-09-26T06:57:13Z</time>
      </trkpt>
      <trkpt lat="42.35219" lon="2.8751316">
        <time>2022-09-26T06:57:24Z</time>
      </trkpt>
      <trkpt lat="42.3522" lon="2.8751283">
        <time>2022-09-26T06:57:31Z</time>
      </trkpt>
      <trkpt lat="42.3522" lon="2.8751233">
        <time>2022-09-26T06:57:34Z</time>
      </trkpt>
      <trkpt lat="42.3522" lon="2.8751218">
        <time>2022-09-26T06:57:35Z</time>
      </trkpt>
      <trkpt lat="42.3522" lon="2.87512">
        <time>2022-09-26T06:57:36Z</time>
      </trkpt>
      <trkpt lat="42.352203" lon="2.875105">
        <time>2022-09-26T06:57:52Z</time>
      </trkpt>
      <trkpt lat="42.352203" lon="2.875105">
        <time>2022-09-26T06:57:53Z</time>
      </trkpt>
      <trkpt lat="42.352215" lon="2.875105">
        <time>2022-09-26T06:57:55Z</time>
      </trkpt>
      <trkpt lat="42.352215" lon="2.8751044">
        <time>2022-09-26T06:57:56Z</time>
      </trkpt>
      <trkpt lat="42.352215" lon="2.875104">
        <time>2022-09-26T06:57:57Z</time>
      </trkpt>
      <trkpt lat="42.35222" lon="2.8751037">
        <time>2022-09-26T06:57:58Z</time>
      </trkpt>
      <trkpt lat="42.35223" lon="2.8751013">
        <time>2022-09-26T06:58:02Z</time>
      </trkpt>
      <trkpt lat="42.352234" lon="2.875105">
        <time>2022-09-26T06:58:24Z</time>
      </trkpt>
      <trkpt lat="42.352234" lon="2.8751054">
        <time>2022-09-26T06:58:25Z</time>
      </trkpt>
      <trkpt lat="42.352234" lon="2.8751063">
        <time>2022-09-26T06:58:26Z</time>
      </trkpt>
      <trkpt lat="42.35223" lon="2.8751073">
        <time>2022-09-26T06:58:27Z</time>
      </trkpt>
      <trkpt lat="42.35223" lon="2.8751082">
        <time>2022-09-26T06:58:28Z</time>
      </trkpt>
      <trkpt lat="42.352226" lon="2.8751094">
        <time>2022-09-26T06:58:29Z</time>
      </trkpt>
      <trkpt lat="42.352222" lon="2.8751097">
        <time>2022-09-26T06:58:30Z</time>
      </trkpt>
      <trkpt lat="42.352222" lon="2.875111">
        <time>2022-09-26T06:58:31Z</time>
      </trkpt>
      <trkpt lat="42.35222" lon="2.8751123">
        <time>2022-09-26T06:58:32Z</time>
      </trkpt>
      <trkpt lat="42.35221" lon="2.8751144">
        <time>2022-09-26T06:58:33Z</time>
      </trkpt>
      <trkpt lat="42.352207" lon="2.875118">
        <time>2022-09-26T06:58:34Z</time>
      </trkpt>
      <trkpt lat="42.352203" lon="2.8751218">
        <time>2022-09-26T06:58:35Z</time>
      </trkpt>
      <trkpt lat="42.3522" lon="2.8751256">
        <time>2022-09-26T06:58:36Z</time>
      </trkpt>
      <trkpt lat="42.352192" lon="2.87513">
        <time>2022-09-26T06:58:37Z</time>
      </trkpt>
      <trkpt lat="42.35219" lon="2.875133">
        <time>2022-09-26T06:58:38Z</time>
      </trkpt>
      <trkpt lat="42.35219" lon="2.875136">
        <time>2022-09-26T06:58:39Z</time>
      </trkpt>
      <trkpt lat="42.352177" lon="2.8751433">
        <time>2022-09-26T06:58:41Z</time>
      </trkpt>
      <trkpt lat="42.352177" lon="2.8751366">
        <time>2022-09-26T06:59:01Z</time>
      </trkpt>
      <trkpt lat="42.352192" lon="2.87524">
        <time>2022-09-26T07:00:43Z</time>
      </trkpt>
      <trkpt lat="42.352097" lon="2.8753014">
        <time>2022-09-26T07:00:58Z</time>
      </trkpt>
      <trkpt lat="42.3521" lon="2.87537">
        <time>2022-09-26T07:01:08Z</time>
      </trkpt>
      <trkpt lat="42.35212" lon="2.8754117">
        <time>2022-09-26T07:01:17Z</time>
      </trkpt>
      <trkpt lat="42.352116" lon="2.8753598">
        <time>2022-09-26T07:03:57Z</time>
      </trkpt>
      <trkpt lat="42.352104" lon="2.875291">
        <time>2022-09-26T07:04:05Z</time>
      </trkpt>
      <trkpt lat="42.352062" lon="2.8752537">
        <time>2022-09-26T07:04:11Z</time>
      </trkpt>
      <trkpt lat="42.352028" lon="2.8753088">
        <time>2022-09-26T07:04:18Z</time>
      </trkpt>
      <trkpt lat="42.352013" lon="2.875372">
        <time>2022-09-26T07:04:23Z</time>
      </trkpt>
      <trkpt lat="42.351997" lon="2.875438">
        <time>2022-09-26T07:04:28Z</time>
      </trkpt>
      <trkpt lat="42.35197" lon="2.875508">
        <time>2022-09-26T07:04:33Z</time>
      </trkpt>
      <trkpt lat="42.351955" lon="2.875587">
        <time>2022-09-26T07:04:38Z</time>
      </trkpt>
      <trkpt lat="42.351955" lon="2.875667">
        <time>2022-09-26T07:04:43Z</time>
      </trkpt>
      <trkpt lat="42.351963" lon="2.8757484">
        <time>2022-09-26T07:04:48Z</time>
      </trkpt>
      <trkpt lat="42.351967" lon="2.8758323">
        <time>2022-09-26T07:04:53Z</time>
      </trkpt>
      <trkpt lat="42.35198" lon="2.8758993">
        <time>2022-09-26T07:04:59Z</time>
      </trkpt>
      <trkpt lat="42.351963" lon="2.8759737">
        <time>2022-09-26T07:05:05Z</time>
      </trkpt>
      <trkpt lat="42.351967" lon="2.8760443">
        <time>2022-09-26T07:05:09Z</time>
      </trkpt>
      <trkpt lat="42.351974" lon="2.8761306">
        <time>2022-09-26T07:05:14Z</time>
      </trkpt>
      <trkpt lat="42.35199" lon="2.8762093">
        <time>2022-09-26T07:05:19Z</time>
      </trkpt>
      <trkpt lat="42.351994" lon="2.8762782">
        <time>2022-09-26T07:05:23Z</time>
      </trkpt>
      <trkpt lat="42.352005" lon="2.8763535">
        <time>2022-09-26T07:05:27Z</time>
      </trkpt>
      <trkpt lat="42.35201" lon="2.8764212">
        <time>2022-09-26T07:05:31Z</time>
      </trkpt>
      <trkpt lat="42.352013" lon="2.876496">
        <time>2022-09-26T07:05:36Z</time>
      </trkpt>
      <trkpt lat="42.35201" lon="2.876568">
        <time>2022-09-26T07:05:42Z</time>
      </trkpt>
      <trkpt lat="42.352013" lon="2.8766465">
        <time>2022-09-26T07:05:49Z</time>
      </trkpt>
      <trkpt lat="42.352" lon="2.8767066">
        <time>2022-09-26T07:05:56Z</time>
      </trkpt>
      <trkpt lat="42.351997" lon="2.8768077">
        <time>2022-09-26T07:07:13Z</time>
      </trkpt>
      <trkpt lat="42.351982" lon="2.8768926">
        <time>2022-09-26T07:07:18Z</time>
      </trkpt>
      <trkpt lat="42.351974" lon="2.8769627">
        <time>2022-09-26T07:07:22Z</time>
      </trkpt>
      <trkpt lat="42.351974" lon="2.8770297">
        <time>2022-09-26T07:07:27Z</time>
      </trkpt>
      <trkpt lat="42.35199" lon="2.8770957">
        <time>2022-09-26T07:07:35Z</time>
      </trkpt>
      <trkpt lat="42.351944" lon="2.877135">
        <time>2022-09-26T07:07:59Z</time>
      </trkpt>
      <trkpt lat="42.351913" lon="2.877194">
        <time>2022-09-26T07:08:07Z</time>
      </trkpt>
      <trkpt lat="42.351894" lon="2.8772535">
        <time>2022-09-26T07:08:39Z</time>
      </trkpt>
      <trkpt lat="42.351894" lon="2.8773372">
        <time>2022-09-26T07:08:44Z</time>
      </trkpt>
      <trkpt lat="42.351883" lon="2.8774047">
        <time>2022-09-26T07:08:48Z</time>
      </trkpt>
      <trkpt lat="42.35192" lon="2.8773863">
        <time>2022-09-26T07:09:23Z</time>
      </trkpt>
      <trkpt lat="42.351948" lon="2.8773308">
        <time>2022-09-26T07:09:28Z</time>
      </trkpt>
      <trkpt lat="42.351982" lon="2.8772643">
        <time>2022-09-26T07:09:40Z</time>
      </trkpt>
      <trkpt lat="42.35196" lon="2.8772087">
        <time>2022-09-26T07:09:58Z</time>
      </trkpt>
      <trkpt lat="42.351906" lon="2.8772302">
        <time>2022-09-26T07:10:12Z</time>
      </trkpt>
      <trkpt lat="42.351887" lon="2.8773046">
        <time>2022-09-26T07:10:19Z</time>
      </trkpt>
      <trkpt lat="42.351887" lon="2.8773723">
        <time>2022-09-26T07:10:25Z</time>
      </trkpt>
      <trkpt lat="42.351875" lon="2.8774447">
        <time>2022-09-26T07:10:32Z</time>
      </trkpt>
      <trkpt lat="42.351883" lon="2.8775184">
        <time>2022-09-26T07:10:38Z</time>
      </trkpt>
      <trkpt lat="42.35187" lon="2.877597">
        <time>2022-09-26T07:10:44Z</time>
      </trkpt>
      <trkpt lat="42.35188" lon="2.877668">
        <time>2022-09-26T07:10:49Z</time>
      </trkpt>
      <trkpt lat="42.35188" lon="2.877755">
        <time>2022-09-26T07:10:58Z</time>
      </trkpt>
      <trkpt lat="42.35187" lon="2.877814">
        <time>2022-09-26T07:11:06Z</time>
      </trkpt>
      <trkpt lat="42.351852" lon="2.877874">
        <time>2022-09-26T07:11:21Z</time>
      </trkpt>
      <trkpt lat="42.35188" lon="2.877939">
        <time>2022-09-26T07:11:28Z</time>
      </trkpt>
      <trkpt lat="42.351868" lon="2.8780017">
        <time>2022-09-26T07:11:36Z</time>
      </trkpt>
      <trkpt lat="42.351864" lon="2.8780587">
        <time>2022-09-26T07:12:00Z</time>
      </trkpt>
      <trkpt lat="42.351875" lon="2.878143">
        <time>2022-09-26T07:12:05Z</time>
      </trkpt>
      <trkpt lat="42.35188" lon="2.8782005">
        <time>2022-09-26T07:12:09Z</time>
      </trkpt>
      <trkpt lat="42.351902" lon="2.8782747">
        <time>2022-09-26T07:12:16Z</time>
      </trkpt>
      <trkpt lat="42.351917" lon="2.8783398">
        <time>2022-09-26T07:12:21Z</time>
      </trkpt>
      <trkpt lat="42.35193" lon="2.8784044">
        <time>2022-09-26T07:12:27Z</time>
      </trkpt>
      <trkpt lat="42.351948" lon="2.8784661">
        <time>2022-09-26T07:13:00Z</time>
      </trkpt>
      <trkpt lat="42.35196" lon="2.8785493">
        <time>2022-09-26T07:13:05Z</time>
      </trkpt>
      <trkpt lat="42.35197" lon="2.8786156">
        <time>2022-09-26T07:13:09Z</time>
      </trkpt>
      <trkpt lat="42.351997" lon="2.8786902">
        <time>2022-09-26T07:13:15Z</time>
      </trkpt>
      <trkpt lat="42.352013" lon="2.8787613">
        <time>2022-09-26T07:13:22Z</time>
      </trkpt>
      <trkpt lat="42.35203" lon="2.8788297">
        <time>2022-09-26T07:13:29Z</time>
      </trkpt>
      <trkpt lat="42.352066" lon="2.878896">
        <time>2022-09-26T07:13:35Z</time>
      </trkpt>
      <trkpt lat="42.352093" lon="2.878968">
        <time>2022-09-26T07:13:41Z</time>
      </trkpt>
      <trkpt lat="42.352104" lon="2.879036">
        <time>2022-09-26T07:13:47Z</time>
      </trkpt>
      <trkpt lat="42.3521" lon="2.8791034">
        <time>2022-09-26T07:14:29Z</time>
      </trkpt>
      <trkpt lat="42.352146" lon="2.8791404">
        <time>2022-09-26T07:14:35Z</time>
      </trkpt>
      <trkpt lat="42.352173" lon="2.8792048">
        <time>2022-09-26T07:14:40Z</time>
      </trkpt>
      <trkpt lat="42.352184" lon="2.879304">
        <time>2022-09-26T07:14:57Z</time>
      </trkpt>
      <trkpt lat="42.35219" lon="2.8793826">
        <time>2022-09-26T07:15:06Z</time>
      </trkpt>
      <trkpt lat="42.352234" lon="2.879398">
        <time>2022-09-26T07:15:13Z</time>
      </trkpt>
      <trkpt lat="42.352276" lon="2.8793683">
        <time>2022-09-26T07:15:19Z</time>
      </trkpt>
      <trkpt lat="42.35233" lon="2.8793554">
        <time>2022-09-26T07:15:27Z</time>
      </trkpt>
      <trkpt lat="42.35238" lon="2.8793793">
        <time>2022-09-26T07:15:35Z</time>
      </trkpt>
      <trkpt lat="42.352425" lon="2.879358">
        <time>2022-09-26T07:15:44Z</time>
      </trkpt>
      <trkpt lat="42.352478" lon="2.8793437">
        <time>2022-09-26T07:15:52Z</time>
      </trkpt>
      <trkpt lat="42.35253" lon="2.8793187">
        <time>2022-09-26T07:15:58Z</time>
      </trkpt>
      <trkpt lat="42.352577" lon="2.8793006">
        <time>2022-09-26T07:16:04Z</time>
      </trkpt>
      <trkpt lat="42.352627" lon="2.8792768">
        <time>2022-09-26T07:16:12Z</time>
      </trkpt>
      <trkpt lat="42.352673" lon="2.8792398">
        <time>2022-09-26T07:16:22Z</time>
      </trkpt>
      <trkpt lat="42.35273" lon="2.8792307">
        <time>2022-09-26T07:16:30Z</time>
      </trkpt>
      <trkpt lat="42.35277" lon="2.8792133">
        <time>2022-09-26T07:16:37Z</time>
      </trkpt>
      <trkpt lat="42.35284" lon="2.8792052">
        <time>2022-09-26T07:16:49Z</time>
      </trkpt>
      <trkpt lat="42.3529" lon="2.8792093">
        <time>2022-09-26T07:16:56Z</time>
      </trkpt>
      <trkpt lat="42.352943" lon="2.8792133">
        <time>2022-09-26T07:17:03Z</time>
      </trkpt>
      <trkpt lat="42.353004" lon="2.8792012">
        <time>2022-09-26T07:17:11Z</time>
      </trkpt>
      <trkpt lat="42.35305" lon="2.879198">
        <time>2022-09-26T07:17:18Z</time>
      </trkpt>
      <trkpt lat="42.353104" lon="2.8791955">
        <time>2022-09-26T07:17:26Z</time>
      </trkpt>
      <trkpt lat="42.353127" lon="2.8792963">
        <time>2022-09-26T07:17:39Z</time>
      </trkpt>
      <trkpt lat="42.353123" lon="2.879368">
        <time>2022-09-26T07:17:44Z</time>
      </trkpt>
      <trkpt lat="42.353123" lon="2.879459">
        <time>2022-09-26T07:17:49Z</time>
      </trkpt>
      <trkpt lat="42.353134" lon="2.879531">
        <time>2022-09-26T07:17:53Z</time>
      </trkpt>
      <trkpt lat="42.353157" lon="2.8796139">
        <time>2022-09-26T07:17:57Z</time>
      </trkpt>
      <trkpt lat="42.353195" lon="2.879658">
        <time>2022-09-26T07:18:01Z</time>
      </trkpt>
      <trkpt lat="42.35321" lon="2.8796413">
        <time>2022-09-26T07:18:17Z</time>
      </trkpt>
      <trkpt lat="42.353184" lon="2.8795774">
        <time>2022-09-26T07:18:25Z</time>
      </trkpt>
      <trkpt lat="42.353195" lon="2.8795238">
        <time>2022-09-26T07:18:38Z</time>
      </trkpt>
      <trkpt lat="42.353188" lon="2.8795266">
        <time>2022-09-26T07:22:06Z</time>
      </trkpt>
      <trkpt lat="42.353203" lon="2.879606">
        <time>2022-09-26T07:22:12Z</time>
      </trkpt>
      <trkpt lat="42.35323" lon="2.879631">
        <time>2022-09-26T07:22:22Z</time>
      </trkpt>
      <trkpt lat="42.353233" lon="2.879605">
        <time>2022-09-26T07:25:04Z</time>
      </trkpt>
      <trkpt lat="42.353233" lon="2.879672">
        <time>2022-09-26T07:25:23Z</time>
      </trkpt>
      <trkpt lat="42.353195" lon="2.8796003">
        <time>2022-09-26T07:25:29Z</time>
      </trkpt>
      <trkpt lat="42.35317" lon="2.8795364">
        <time>2022-09-26T07:25:33Z</time>
      </trkpt>
      <trkpt lat="42.353146" lon="2.8794644">
        <time>2022-09-26T07:25:38Z</time>
      </trkpt>
      <trkpt lat="42.35315" lon="2.8793876">
        <time>2022-09-26T07:25:43Z</time>
      </trkpt>
      <trkpt lat="42.353146" lon="2.8794074">
        <time>2022-09-26T07:25:52Z</time>
      </trkpt>
      <trkpt lat="42.35314" lon="2.8794534">
        <time>2022-09-26T07:26:26Z</time>
      </trkpt>
      <trkpt lat="42.35315" lon="2.8793614">
        <time>2022-09-26T07:26:31Z</time>
      </trkpt>
      <trkpt lat="42.353172" lon="2.8792834">
        <time>2022-09-26T07:26:35Z</time>
      </trkpt>
      <trkpt lat="42.35321" lon="2.8792367">
        <time>2022-09-26T07:26:39Z</time>
      </trkpt>
      <trkpt lat="42.353252" lon="2.879197">
        <time>2022-09-26T07:26:43Z</time>
      </trkpt>
      <trkpt lat="42.353275" lon="2.8791327">
        <time>2022-09-26T07:26:47Z</time>
      </trkpt>
      <trkpt lat="42.353264" lon="2.8790624">
        <time>2022-09-26T07:26:52Z</time>
      </trkpt>
      <trkpt lat="42.353226" lon="2.8790233">
        <time>2022-09-26T07:26:59Z</time>
      </trkpt>
      <trkpt lat="42.353233" lon="2.8789873">
        <time>2022-09-26T07:27:18Z</time>
      </trkpt>
      <trkpt lat="42.353203" lon="2.878913">
        <time>2022-09-26T07:27:22Z</time>
      </trkpt>
      <trkpt lat="42.353184" lon="2.8788323">
        <time>2022-09-26T07:27:26Z</time>
      </trkpt>
      <trkpt lat="42.353176" lon="2.8787582">
        <time>2022-09-26T07:27:30Z</time>
      </trkpt>
      <trkpt lat="42.35317" lon="2.8786893">
        <time>2022-09-26T07:27:34Z</time>
      </trkpt>
      <trkpt lat="42.353165" lon="2.8786142">
        <time>2022-09-26T07:27:38Z</time>
      </trkpt>
      <trkpt lat="42.353165" lon="2.8785484">
        <time>2022-09-26T07:27:43Z</time>
      </trkpt>
      <trkpt lat="42.35315" lon="2.8784838">
        <time>2022-09-26T07:27:54Z</time>
      </trkpt>
      <trkpt lat="42.353115" lon="2.8784122">
        <time>2022-09-26T07:27:59Z</time>
      </trkpt>
      <trkpt lat="42.353085" lon="2.8783464">
        <time>2022-09-26T07:28:03Z</time>
      </trkpt>
      <trkpt lat="42.353054" lon="2.8782797">
        <time>2022-09-26T07:28:07Z</time>
      </trkpt>
      <trkpt lat="42.353027" lon="2.8782163">
        <time>2022-09-26T07:28:11Z</time>
      </trkpt>
      <trkpt lat="42.353012" lon="2.8781316">
        <time>2022-09-26T07:28:16Z</time>
      </trkpt>
      <trkpt lat="42.35301" lon="2.878061">
        <time>2022-09-26T07:28:20Z</time>
      </trkpt>
      <trkpt lat="42.35302" lon="2.877974">
        <time>2022-09-26T07:28:25Z</time>
      </trkpt>
      <trkpt lat="42.353024" lon="2.8778923">
        <time>2022-09-26T07:28:28Z</time>
      </trkpt>
      <trkpt lat="42.353046" lon="2.8778057">
        <time>2022-09-26T07:28:34Z</time>
      </trkpt>
      <trkpt lat="42.353058" lon="2.8777478">
        <time>2022-09-26T07:28:38Z</time>
      </trkpt>
      <trkpt lat="42.353054" lon="2.8777637">
        <time>2022-09-26T07:28:51Z</time>
      </trkpt>
      <trkpt lat="42.35304" lon="2.8778484">
        <time>2022-09-26T07:28:56Z</time>
      </trkpt>
      <trkpt lat="42.353024" lon="2.8779325">
        <time>2022-09-26T07:29:01Z</time>
      </trkpt>
      <trkpt lat="42.353016" lon="2.8780067">
        <time>2022-09-26T07:29:05Z</time>
      </trkpt>
      <trkpt lat="42.353012" lon="2.8780873">
        <time>2022-09-26T07:29:09Z</time>
      </trkpt>
      <trkpt lat="42.353024" lon="2.8781676">
        <time>2022-09-26T07:29:13Z</time>
      </trkpt>
      <trkpt lat="42.35305" lon="2.8782356">
        <time>2022-09-26T07:29:17Z</time>
      </trkpt>
      <trkpt lat="42.353085" lon="2.8783047">
        <time>2022-09-26T07:29:22Z</time>
      </trkpt>
      <trkpt lat="42.35311" lon="2.8783553">
        <time>2022-09-26T07:29:26Z</time>
      </trkpt>
      <trkpt lat="42.35313" lon="2.878435">
        <time>2022-09-26T07:29:31Z</time>
      </trkpt>
      <trkpt lat="42.35315" lon="2.8785098">
        <time>2022-09-26T07:29:37Z</time>
      </trkpt>
      <trkpt lat="42.353146" lon="2.8785872">
        <time>2022-09-26T07:29:43Z</time>
      </trkpt>
      <trkpt lat="42.35315" lon="2.8787007">
        <time>2022-09-26T07:29:56Z</time>
      </trkpt>
      <trkpt lat="42.35315" lon="2.8787754">
        <time>2022-09-26T07:30:00Z</time>
      </trkpt>
      <trkpt lat="42.353157" lon="2.8788471">
        <time>2022-09-26T07:30:04Z</time>
      </trkpt>
      <trkpt lat="42.353172" lon="2.8789136">
        <time>2022-09-26T07:30:08Z</time>
      </trkpt>
      <trkpt lat="42.3532" lon="2.8789804">
        <time>2022-09-26T07:30:12Z</time>
      </trkpt>
      <trkpt lat="42.35322" lon="2.8790393">
        <time>2022-09-26T07:30:16Z</time>
      </trkpt>
      <trkpt lat="42.353264" lon="2.8790886">
        <time>2022-09-26T07:30:22Z</time>
      </trkpt>
      <trkpt lat="42.35329" lon="2.8791156">
        <time>2022-09-26T07:30:27Z</time>
      </trkpt>
      <trkpt lat="42.353252" lon="2.879049">
        <time>2022-09-26T07:30:36Z</time>
      </trkpt>
      <trkpt lat="42.353226" lon="2.8789923">
        <time>2022-09-26T07:30:42Z</time>
      </trkpt>
      <trkpt lat="42.3532" lon="2.8789215">
        <time>2022-09-26T07:30:48Z</time>
      </trkpt>
      <trkpt lat="42.353176" lon="2.8788416">
        <time>2022-09-26T07:30:53Z</time>
      </trkpt>
      <trkpt lat="42.35317" lon="2.878769">
        <time>2022-09-26T07:30:57Z</time>
      </trkpt>
      <trkpt lat="42.35317" lon="2.8786914">
        <time>2022-09-26T07:31:02Z</time>
      </trkpt>
      <trkpt lat="42.353157" lon="2.8786097">
        <time>2022-09-26T07:31:11Z</time>
      </trkpt>
      <trkpt lat="42.35315" lon="2.8785417">
        <time>2022-09-26T07:31:16Z</time>
      </trkpt>
      <trkpt lat="42.35314" lon="2.878461">
        <time>2022-09-26T07:31:21Z</time>
      </trkpt>
      <trkpt lat="42.35312" lon="2.8783953">
        <time>2022-09-26T07:31:25Z</time>
      </trkpt>
      <trkpt lat="42.35309" lon="2.8783274">
        <time>2022-09-26T07:31:30Z</time>
      </trkpt>
      <trkpt lat="42.353058" lon="2.8782697">
        <time>2022-09-26T07:31:34Z</time>
      </trkpt>
      <trkpt lat="42.35304" lon="2.878205">
        <time>2022-09-26T07:31:38Z</time>
      </trkpt>
      <trkpt lat="42.353024" lon="2.8781223">
        <time>2022-09-26T07:31:43Z</time>
      </trkpt>
      <trkpt lat="42.353024" lon="2.8780503">
        <time>2022-09-26T07:31:47Z</time>
      </trkpt>
      <trkpt lat="42.353027" lon="2.8779774">
        <time>2022-09-26T07:31:51Z</time>
      </trkpt>
      <trkpt lat="42.353043" lon="2.877901">
        <time>2022-09-26T07:31:55Z</time>
      </trkpt>
      <trkpt lat="42.353058" lon="2.8778212">
        <time>2022-09-26T07:31:59Z</time>
      </trkpt>
      <trkpt lat="42.35307" lon="2.877744">
        <time>2022-09-26T07:32:03Z</time>
      </trkpt>
      <trkpt lat="42.35309" lon="2.877669">
        <time>2022-09-26T07:32:08Z</time>
      </trkpt>
      <trkpt lat="42.353096" lon="2.877597">
        <time>2022-09-26T07:32:12Z</time>
      </trkpt>
      <trkpt lat="42.353085" lon="2.877525">
        <time>2022-09-26T07:32:16Z</time>
      </trkpt>
      <trkpt lat="42.353065" lon="2.8774636">
        <time>2022-09-26T07:32:20Z</time>
      </trkpt>
      <trkpt lat="42.35303" lon="2.8774097">
        <time>2022-09-26T07:32:24Z</time>
      </trkpt>
      <trkpt lat="42.35298" lon="2.8773844">
        <time>2022-09-26T07:32:28Z</time>
      </trkpt>
      <trkpt lat="42.35292" lon="2.8773513">
        <time>2022-09-26T07:32:33Z</time>
      </trkpt>
      <trkpt lat="42.352875" lon="2.8772962">
        <time>2022-09-26T07:32:38Z</time>
      </trkpt>
      <trkpt lat="42.352848" lon="2.8772254">
        <time>2022-09-26T07:32:43Z</time>
      </trkpt>
      <trkpt lat="42.35284" lon="2.8771605">
        <time>2022-09-26T07:32:47Z</time>
      </trkpt>
      <trkpt lat="42.352825" lon="2.8770874">
        <time>2022-09-26T07:32:51Z</time>
      </trkpt>
      <trkpt lat="42.352814" lon="2.8770225">
        <time>2022-09-26T07:32:55Z</time>
      </trkpt>
      <trkpt lat="42.352802" lon="2.876944">
        <time>2022-09-26T07:32:59Z</time>
      </trkpt>
      <trkpt lat="42.352806" lon="2.8768687">
        <time>2022-09-26T07:33:03Z</time>
      </trkpt>
      <trkpt lat="42.352814" lon="2.8767874">
        <time>2022-09-26T07:33:07Z</time>
      </trkpt>
      <trkpt lat="42.352837" lon="2.8767197">
        <time>2022-09-26T07:33:11Z</time>
      </trkpt>
      <trkpt lat="42.352863" lon="2.8766527">
        <time>2022-09-26T07:33:15Z</time>
      </trkpt>
      <trkpt lat="42.35289" lon="2.8765817">
        <time>2022-09-26T07:33:19Z</time>
      </trkpt>
      <trkpt lat="42.352913" lon="2.8765194">
        <time>2022-09-26T07:33:23Z</time>
      </trkpt>
      <trkpt lat="42.352936" lon="2.8764558">
        <time>2022-09-26T07:33:27Z</time>
      </trkpt>
      <trkpt lat="42.352955" lon="2.8763833">
        <time>2022-09-26T07:33:31Z</time>
      </trkpt>
      <trkpt lat="42.352978" lon="2.8763194">
        <time>2022-09-26T07:33:35Z</time>
      </trkpt>
      <trkpt lat="42.353" lon="2.876253">
        <time>2022-09-26T07:33:39Z</time>
      </trkpt>
      <trkpt lat="42.35303" lon="2.8761823">
        <time>2022-09-26T07:33:43Z</time>
      </trkpt>
      <trkpt lat="42.35306" lon="2.876112">
        <time>2022-09-26T07:33:47Z</time>
      </trkpt>
      <trkpt lat="42.353085" lon="2.8760436">
        <time>2022-09-26T07:33:51Z</time>
      </trkpt>
      <trkpt lat="42.353107" lon="2.875964">
        <time>2022-09-26T07:33:56Z</time>
      </trkpt>
      <trkpt lat="42.353134" lon="2.8758886">
        <time>2022-09-26T07:34:01Z</time>
      </trkpt>
      <trkpt lat="42.353157" lon="2.8758154">
        <time>2022-09-26T07:34:06Z</time>
      </trkpt>
      <trkpt lat="42.353172" lon="2.8757536">
        <time>2022-09-26T07:34:10Z</time>
      </trkpt>
      <trkpt lat="42.3532" lon="2.8756704">
        <time>2022-09-26T07:34:15Z</time>
      </trkpt>
      <trkpt lat="42.35322" lon="2.875604">
        <time>2022-09-26T07:34:19Z</time>
      </trkpt>
      <trkpt lat="42.353252" lon="2.8755424">
        <time>2022-09-26T07:34:23Z</time>
      </trkpt>
      <trkpt lat="42.353275" lon="2.87548">
        <time>2022-09-26T07:34:27Z</time>
      </trkpt>
      <trkpt lat="42.353306" lon="2.8754065">
        <time>2022-09-26T07:34:31Z</time>
      </trkpt>
      <trkpt lat="42.353317" lon="2.875329">
        <time>2022-09-26T07:34:35Z</time>
      </trkpt>
      <trkpt lat="42.353317" lon="2.8752506">
        <time>2022-09-26T07:34:39Z</time>
      </trkpt>
      <trkpt lat="42.35331" lon="2.8751802">
        <time>2022-09-26T07:34:43Z</time>
      </trkpt>
      <trkpt lat="42.353283" lon="2.8751087">
        <time>2022-09-26T07:34:48Z</time>
      </trkpt>
      <trkpt lat="42.353245" lon="2.8750412">
        <time>2022-09-26T07:34:52Z</time>
      </trkpt>
      <trkpt lat="42.353207" lon="2.8749716">
        <time>2022-09-26T07:34:56Z</time>
      </trkpt>
      <trkpt lat="42.353176" lon="2.8749087">
        <time>2022-09-26T07:35:00Z</time>
      </trkpt>
      <trkpt lat="42.35316" lon="2.8748446">
        <time>2022-09-26T07:35:04Z</time>
      </trkpt>
      <trkpt lat="42.35316" lon="2.8747678">
        <time>2022-09-26T07:35:09Z</time>
      </trkpt>
      <trkpt lat="42.353176" lon="2.8746874">
        <time>2022-09-26T07:35:14Z</time>
      </trkpt>
      <trkpt lat="42.353184" lon="2.8746197">
        <time>2022-09-26T07:35:18Z</time>
      </trkpt>
      <trkpt lat="42.353207" lon="2.874555">
        <time>2022-09-26T07:35:23Z</time>
      </trkpt>
      <trkpt lat="42.35323" lon="2.8744972">
        <time>2022-09-26T07:35:28Z</time>
      </trkpt>
      <trkpt lat="42.353252" lon="2.8744311">
        <time>2022-09-26T07:35:34Z</time>
      </trkpt>
      <trkpt lat="42.35327" lon="2.8743644">
        <time>2022-09-26T07:35:39Z</time>
      </trkpt>
      <trkpt lat="42.353294" lon="2.8742955">
        <time>2022-09-26T07:35:45Z</time>
      </trkpt>
      <trkpt lat="42.353306" lon="2.8742182">
        <time>2022-09-26T07:35:51Z</time>
      </trkpt>
      <trkpt lat="42.35333" lon="2.8741462">
        <time>2022-09-26T07:35:57Z</time>
      </trkpt>
      <trkpt lat="42.35336" lon="2.8740847">
        <time>2022-09-26T07:36:02Z</time>
      </trkpt>
      <trkpt lat="42.3534" lon="2.874051">
        <time>2022-09-26T07:36:10Z</time>
      </trkpt>
      <trkpt lat="42.35345" lon="2.8740473">
        <time>2022-09-26T07:36:15Z</time>
      </trkpt>
      <trkpt lat="42.353527" lon="2.8740516">
        <time>2022-09-26T07:36:31Z</time>
      </trkpt>
      <trkpt lat="42.35358" lon="2.8740633">
        <time>2022-09-26T07:36:36Z</time>
      </trkpt>
      <trkpt lat="42.353638" lon="2.8740683">
        <time>2022-09-26T07:36:40Z</time>
      </trkpt>
      <trkpt lat="42.353695" lon="2.8740637">
        <time>2022-09-26T07:36:44Z</time>
      </trkpt>
      <trkpt lat="42.35375" lon="2.874064">
        <time>2022-09-26T07:36:48Z</time>
      </trkpt>
      <trkpt lat="42.353806" lon="2.8740742">
        <time>2022-09-26T07:36:52Z</time>
      </trkpt>
      <trkpt lat="42.353855" lon="2.8740988">
        <time>2022-09-26T07:36:56Z</time>
      </trkpt>
      <trkpt lat="42.353916" lon="2.8741207">
        <time>2022-09-26T07:37:01Z</time>
      </trkpt>
      <trkpt lat="42.35397" lon="2.8741286">
        <time>2022-09-26T07:37:05Z</time>
      </trkpt>
      <trkpt lat="42.354023" lon="2.8741226">
        <time>2022-09-26T07:37:09Z</time>
      </trkpt>
      <trkpt lat="42.354073" lon="2.8741152">
        <time>2022-09-26T07:37:13Z</time>
      </trkpt>
      <trkpt lat="42.354134" lon="2.8740973">
        <time>2022-09-26T07:37:18Z</time>
      </trkpt>
      <trkpt lat="42.354195" lon="2.8740926">
        <time>2022-09-26T07:37:23Z</time>
      </trkpt>
      <trkpt lat="42.35425" lon="2.8740897">
        <time>2022-09-26T07:37:28Z</time>
      </trkpt>
      <trkpt lat="42.354317" lon="2.8740776">
        <time>2022-09-26T07:37:33Z</time>
      </trkpt>
      <trkpt lat="42.35437" lon="2.8740623">
        <time>2022-09-26T07:37:37Z</time>
      </trkpt>
      <trkpt lat="42.354427" lon="2.874047">
        <time>2022-09-26T07:37:41Z</time>
      </trkpt>
      <trkpt lat="42.35449" lon="2.874036">
        <time>2022-09-26T07:37:45Z</time>
      </trkpt>
      <trkpt lat="42.354534" lon="2.8740249">
        <time>2022-09-26T07:37:49Z</time>
      </trkpt>
      <trkpt lat="42.354595" lon="2.8740196">
        <time>2022-09-26T07:37:54Z</time>
      </trkpt>
      <trkpt lat="42.354645" lon="2.8740172">
        <time>2022-09-26T07:37:58Z</time>
      </trkpt>
      <trkpt lat="42.354694" lon="2.87402">
        <time>2022-09-26T07:38:02Z</time>
      </trkpt>
      <trkpt lat="42.354748" lon="2.8740118">
        <time>2022-09-26T07:38:06Z</time>
      </trkpt>
      <trkpt lat="42.3548" lon="2.8740225">
        <time>2022-09-26T07:38:10Z</time>
      </trkpt>
      <trkpt lat="42.354855" lon="2.8740308">
        <time>2022-09-26T07:38:14Z</time>
      </trkpt>
      <trkpt lat="42.354908" lon="2.8740299">
        <time>2022-09-26T07:38:18Z</time>
      </trkpt>
      <trkpt lat="42.35497" lon="2.8740318">
        <time>2022-09-26T07:38:23Z</time>
      </trkpt>
      <trkpt lat="42.35501" lon="2.874038">
        <time>2022-09-26T07:38:27Z</time>
      </trkpt>
      <trkpt lat="42.355083" lon="2.8740366">
        <time>2022-09-26T07:38:39Z</time>
      </trkpt>
      <trkpt lat="42.35512" lon="2.874038">
        <time>2022-09-26T07:39:44Z</time>
      </trkpt>
      <trkpt lat="42.35522" lon="2.8740013">
        <time>2022-09-26T07:40:23Z</time>
      </trkpt>
      <trkpt lat="42.355278" lon="2.8740075">
        <time>2022-09-26T07:40:28Z</time>
      </trkpt>
      <trkpt lat="42.355335" lon="2.8740187">
        <time>2022-09-26T07:40:34Z</time>
      </trkpt>
      <trkpt lat="42.355385" lon="2.8740404">
        <time>2022-09-26T07:40:42Z</time>
      </trkpt>
      <trkpt lat="42.35543" lon="2.8740983">
        <time>2022-09-26T07:40:46Z</time>
      </trkpt>
      <trkpt lat="42.355473" lon="2.8741314">
        <time>2022-09-26T07:40:50Z</time>
      </trkpt>
      <trkpt lat="42.35553" lon="2.8741188">
        <time>2022-09-26T07:40:55Z</time>
      </trkpt>
      <trkpt lat="42.35558" lon="2.8740938">
        <time>2022-09-26T07:40:59Z</time>
      </trkpt>
      <trkpt lat="42.35562" lon="2.8740594">
        <time>2022-09-26T07:41:09Z</time>
      </trkpt>
      <trkpt lat="42.35568" lon="2.8740463">
        <time>2022-09-26T07:41:14Z</time>
      </trkpt>
      <trkpt lat="42.355724" lon="2.874015">
        <time>2022-09-26T07:41:40Z</time>
      </trkpt>
      <trkpt lat="42.355717" lon="2.873905">
        <time>2022-09-26T07:41:50Z</time>
      </trkpt>
      <trkpt lat="42.35572" lon="2.873845">
        <time>2022-09-26T07:41:56Z</time>
      </trkpt>
      <trkpt lat="42.355755" lon="2.87377">
        <time>2022-09-26T07:42:18Z</time>
      </trkpt>
      <trkpt lat="42.355732" lon="2.8738256">
        <time>2022-09-26T07:42:40Z</time>
      </trkpt>
      <trkpt lat="42.355717" lon="2.873899">
        <time>2022-09-26T07:42:49Z</time>
      </trkpt>
      <trkpt lat="42.35573" lon="2.8739579">
        <time>2022-09-26T07:42:56Z</time>
      </trkpt>
      <trkpt lat="42.35574" lon="2.8740284">
        <time>2022-09-26T07:43:06Z</time>
      </trkpt>
      <trkpt lat="42.35579" lon="2.8740413">
        <time>2022-09-26T07:43:13Z</time>
      </trkpt>
      <trkpt lat="42.355854" lon="2.874057">
        <time>2022-09-26T07:43:20Z</time>
      </trkpt>
      <trkpt lat="42.355904" lon="2.8740838">
        <time>2022-09-26T07:43:26Z</time>
      </trkpt>
      <trkpt lat="42.355953" lon="2.8741066">
        <time>2022-09-26T07:43:31Z</time>
      </trkpt>
      <trkpt lat="42.356033" lon="2.8741465">
        <time>2022-09-26T07:43:43Z</time>
      </trkpt>
      <trkpt lat="42.356087" lon="2.8741584">
        <time>2022-09-26T07:43:48Z</time>
      </trkpt>
      <trkpt lat="42.35614" lon="2.874165">
        <time>2022-09-26T07:43:53Z</time>
      </trkpt>
      <trkpt lat="42.356197" lon="2.8741872">
        <time>2022-09-26T07:43:59Z</time>
      </trkpt>
      <trkpt lat="42.356236" lon="2.8741941">
        <time>2022-09-26T07:44:05Z</time>
      </trkpt>
      <trkpt lat="42.356266" lon="2.874254">
        <time>2022-09-26T07:44:25Z</time>
      </trkpt>
      <trkpt lat="42.356293" lon="2.8742537">
        <time>2022-09-26T07:44:34Z</time>
      </trkpt>
      <trkpt lat="42.356224" lon="2.8741956">
        <time>2022-09-26T07:46:30Z</time>
      </trkpt>
      <trkpt lat="42.356167" lon="2.8741734">
        <time>2022-09-26T07:46:34Z</time>
      </trkpt>
      <trkpt lat="42.356106" lon="2.8741505">
        <time>2022-09-26T07:46:38Z</time>
      </trkpt>
      <trkpt lat="42.356052" lon="2.874133">
        <time>2022-09-26T07:46:42Z</time>
      </trkpt>
      <trkpt lat="42.356003" lon="2.874117">
        <time>2022-09-26T07:46:46Z</time>
      </trkpt>
      <trkpt lat="42.35595" lon="2.8741014">
        <time>2022-09-26T07:46:51Z</time>
      </trkpt>
      <trkpt lat="42.355892" lon="2.874079">
        <time>2022-09-26T07:46:56Z</time>
      </trkpt>
      <trkpt lat="42.35584" lon="2.874053">
        <time>2022-09-26T07:47:01Z</time>
      </trkpt>
      <trkpt lat="42.355785" lon="2.8740366">
        <time>2022-09-26T07:47:06Z</time>
      </trkpt>
      <trkpt lat="42.355724" lon="2.874031">
        <time>2022-09-26T07:47:11Z</time>
      </trkpt>
      <trkpt lat="42.35567" lon="2.874042">
        <time>2022-09-26T07:47:16Z</time>
      </trkpt>
      <trkpt lat="42.355614" lon="2.8740664">
        <time>2022-09-26T07:47:21Z</time>
      </trkpt>
      <trkpt lat="42.355564" lon="2.8740833">
        <time>2022-09-26T07:47:25Z</time>
      </trkpt>
      <trkpt lat="42.355515" lon="2.8741057">
        <time>2022-09-26T07:47:30Z</time>
      </trkpt>
      <trkpt lat="42.35546" lon="2.874092">
        <time>2022-09-26T07:47:35Z</time>
      </trkpt>
      <trkpt lat="42.355423" lon="2.8740764">
        <time>2022-09-26T07:47:41Z</time>
      </trkpt>
      <trkpt lat="42.355392" lon="2.8741453">
        <time>2022-09-26T07:48:02Z</time>
      </trkpt>
      <trkpt lat="42.35536" lon="2.8741899">
        <time>2022-09-26T07:48:05Z</time>
      </trkpt>
      <trkpt lat="42.355286" lon="2.874279">
        <time>2022-09-26T07:48:19Z</time>
      </trkpt>
      <trkpt lat="42.35524" lon="2.8742876">
        <time>2022-09-26T07:48:25Z</time>
      </trkpt>
      <trkpt lat="42.355286" lon="2.874291">
        <time>2022-09-26T07:48:37Z</time>
      </trkpt>
      <trkpt lat="42.35534" lon="2.8743408">
        <time>2022-09-26T07:48:43Z</time>
      </trkpt>
      <trkpt lat="42.35539" lon="2.8743896">
        <time>2022-09-26T07:48:48Z</time>
      </trkpt>
      <trkpt lat="42.355427" lon="2.8744326">
        <time>2022-09-26T07:48:52Z</time>
      </trkpt>
      <trkpt lat="42.355465" lon="2.8744802">
        <time>2022-09-26T07:48:56Z</time>
      </trkpt>
      <trkpt lat="42.3555" lon="2.874535">
        <time>2022-09-26T07:49:02Z</time>
      </trkpt>
      <trkpt lat="42.355534" lon="2.874595">
        <time>2022-09-26T07:49:09Z</time>
      </trkpt>
      <trkpt lat="42.35555" lon="2.874663">
        <time>2022-09-26T07:49:16Z</time>
      </trkpt>
      <trkpt lat="42.35557" lon="2.8747323">
        <time>2022-09-26T07:49:21Z</time>
      </trkpt>
      <trkpt lat="42.3556" lon="2.874798">
        <time>2022-09-26T07:49:26Z</time>
      </trkpt>
      <trkpt lat="42.355614" lon="2.8748572">
        <time>2022-09-26T07:49:30Z</time>
      </trkpt>
      <trkpt lat="42.355637" lon="2.8749244">
        <time>2022-09-26T07:49:35Z</time>
      </trkpt>
      <trkpt lat="42.35565" lon="2.874997">
        <time>2022-09-26T07:49:40Z</time>
      </trkpt>
      <trkpt lat="42.355682" lon="2.8750596">
        <time>2022-09-26T07:49:45Z</time>
      </trkpt>
      <trkpt lat="42.35571" lon="2.8751357">
        <time>2022-09-26T07:49:50Z</time>
      </trkpt>
      <trkpt lat="42.355743" lon="2.8752017">
        <time>2022-09-26T07:49:58Z</time>
      </trkpt>
      <trkpt lat="42.35579" lon="2.8752353">
        <time>2022-09-26T07:50:05Z</time>
      </trkpt>
      <trkpt lat="42.35584" lon="2.8752737">
        <time>2022-09-26T07:50:09Z</time>
      </trkpt>
      <trkpt lat="42.355885" lon="2.8753097">
        <time>2022-09-26T07:50:13Z</time>
      </trkpt>
      <trkpt lat="42.355946" lon="2.8753366">
        <time>2022-09-26T07:50:18Z</time>
      </trkpt>
      <trkpt lat="42.356018" lon="2.8753486">
        <time>2022-09-26T07:50:22Z</time>
      </trkpt>
      <trkpt lat="42.356064" lon="2.8753617">
        <time>2022-09-26T07:50:25Z</time>
      </trkpt>
      <trkpt lat="42.356125" lon="2.8753738">
        <time>2022-09-26T07:50:29Z</time>
      </trkpt>
      <trkpt lat="42.356186" lon="2.8753884">
        <time>2022-09-26T07:50:33Z</time>
      </trkpt>
      <trkpt lat="42.356236" lon="2.8753958">
        <time>2022-09-26T07:50:37Z</time>
      </trkpt>
      <trkpt lat="42.356297" lon="2.8753963">
        <time>2022-09-26T07:50:42Z</time>
      </trkpt>
      <trkpt lat="42.356354" lon="2.8753884">
        <time>2022-09-26T07:50:46Z</time>
      </trkpt>
      <trkpt lat="42.356422" lon="2.8753767">
        <time>2022-09-26T07:50:51Z</time>
      </trkpt>
      <trkpt lat="42.356487" lon="2.8753676">
        <time>2022-09-26T07:50:56Z</time>
      </trkpt>
      <trkpt lat="42.35654" lon="2.875367">
        <time>2022-09-26T07:51:01Z</time>
      </trkpt>
      <trkpt lat="42.356598" lon="2.875393">
        <time>2022-09-26T07:51:05Z</time>
      </trkpt>
      <trkpt lat="42.356647" lon="2.875436">
        <time>2022-09-26T07:51:09Z</time>
      </trkpt>
      <trkpt lat="42.35668" lon="2.875509">
        <time>2022-09-26T07:51:13Z</time>
      </trkpt>
      <trkpt lat="42.35671" lon="2.875579">
        <time>2022-09-26T07:51:17Z</time>
      </trkpt>
      <trkpt lat="42.356724" lon="2.8756468">
        <time>2022-09-26T07:51:21Z</time>
      </trkpt>
      <trkpt lat="42.356735" lon="2.8757136">
        <time>2022-09-26T07:51:26Z</time>
      </trkpt>
      <trkpt lat="42.35677" lon="2.8757887">
        <time>2022-09-26T07:51:32Z</time>
      </trkpt>
      <trkpt lat="42.356792" lon="2.87585">
        <time>2022-09-26T07:51:36Z</time>
      </trkpt>
      <trkpt lat="42.3568" lon="2.8759224">
        <time>2022-09-26T07:51:40Z</time>
      </trkpt>
      <trkpt lat="42.35681" lon="2.8759882">
        <time>2022-09-26T07:51:44Z</time>
      </trkpt>
      <trkpt lat="42.356815" lon="2.876057">
        <time>2022-09-26T07:51:48Z</time>
      </trkpt>
      <trkpt lat="42.356815" lon="2.8761628">
        <time>2022-09-26T07:52:01Z</time>
      </trkpt>
      <trkpt lat="42.356842" lon="2.8762307">
        <time>2022-09-26T07:52:06Z</time>
      </trkpt>
      <trkpt lat="42.356857" lon="2.876296">
        <time>2022-09-26T07:52:11Z</time>
      </trkpt>
      <trkpt lat="42.356876" lon="2.876383">
        <time>2022-09-26T07:52:16Z</time>
      </trkpt>
      <trkpt lat="42.356895" lon="2.876458">
        <time>2022-09-26T07:52:20Z</time>
      </trkpt>
      <trkpt lat="42.35692" lon="2.87653">
        <time>2022-09-26T07:52:24Z</time>
      </trkpt>
      <trkpt lat="42.35695" lon="2.876601">
        <time>2022-09-26T07:52:28Z</time>
      </trkpt>
      <trkpt lat="42.356976" lon="2.8766656">
        <time>2022-09-26T07:52:32Z</time>
      </trkpt>
      <trkpt lat="42.356995" lon="2.8767433">
        <time>2022-09-26T07:52:36Z</time>
      </trkpt>
      <trkpt lat="42.357025" lon="2.8768098">
        <time>2022-09-26T07:52:40Z</time>
      </trkpt>
      <trkpt lat="42.357063" lon="2.8768585">
        <time>2022-09-26T07:52:44Z</time>
      </trkpt>
      <trkpt lat="42.35711" lon="2.8768935">
        <time>2022-09-26T07:52:48Z</time>
      </trkpt>
      <trkpt lat="42.357162" lon="2.876918">
        <time>2022-09-26T07:52:52Z</time>
      </trkpt>
      <trkpt lat="42.35722" lon="2.876937">
        <time>2022-09-26T07:52:56Z</time>
      </trkpt>
      <trkpt lat="42.357277" lon="2.8769367">
        <time>2022-09-26T07:53:00Z</time>
      </trkpt>
      <trkpt lat="42.357327" lon="2.8769507">
        <time>2022-09-26T07:53:04Z</time>
      </trkpt>
      <trkpt lat="42.35738" lon="2.8769903">
        <time>2022-09-26T07:53:09Z</time>
      </trkpt>
      <trkpt lat="42.357437" lon="2.8770237">
        <time>2022-09-26T07:53:14Z</time>
      </trkpt>
      <trkpt lat="42.357483" lon="2.877057">
        <time>2022-09-26T07:53:18Z</time>
      </trkpt>
      <trkpt lat="42.357525" lon="2.877093">
        <time>2022-09-26T07:53:22Z</time>
      </trkpt>
      <trkpt lat="42.357574" lon="2.8771293">
        <time>2022-09-26T07:53:26Z</time>
      </trkpt>
      <trkpt lat="42.357628" lon="2.877147">
        <time>2022-09-26T07:53:30Z</time>
      </trkpt>
      <trkpt lat="42.357685" lon="2.87715">
        <time>2022-09-26T07:53:34Z</time>
      </trkpt>
      <trkpt lat="42.357735" lon="2.877162">
        <time>2022-09-26T07:53:38Z</time>
      </trkpt>
      <trkpt lat="42.357788" lon="2.877182">
        <time>2022-09-26T07:53:47Z</time>
      </trkpt>
      <trkpt lat="42.3578" lon="2.8771338">
        <time>2022-09-26T07:53:54Z</time>
      </trkpt>
      <trkpt lat="42.357746" lon="2.8771756">
        <time>2022-09-26T07:54:00Z</time>
      </trkpt>
      <trkpt lat="42.357697" lon="2.8772228">
        <time>2022-09-26T07:54:05Z</time>
      </trkpt>
      <trkpt lat="42.357655" lon="2.877264">
        <time>2022-09-26T07:54:09Z</time>
      </trkpt>
      <trkpt lat="42.3576" lon="2.87731">
        <time>2022-09-26T07:54:14Z</time>
      </trkpt>
      <trkpt lat="42.357548" lon="2.8773499">
        <time>2022-09-26T07:54:18Z</time>
      </trkpt>
      <trkpt lat="42.3575" lon="2.8773897">
        <time>2022-09-26T07:54:22Z</time>
      </trkpt>
      <trkpt lat="42.357452" lon="2.8774364">
        <time>2022-09-26T07:54:27Z</time>
      </trkpt>
      <trkpt lat="42.357403" lon="2.8774858">
        <time>2022-09-26T07:54:32Z</time>
      </trkpt>
      <trkpt lat="42.357357" lon="2.8775306">
        <time>2022-09-26T07:54:36Z</time>
      </trkpt>
      <trkpt lat="42.35731" lon="2.8775697">
        <time>2022-09-26T07:54:40Z</time>
      </trkpt>
      <trkpt lat="42.357265" lon="2.8776007">
        <time>2022-09-26T07:54:44Z</time>
      </trkpt>
      <trkpt lat="42.357216" lon="2.877616">
        <time>2022-09-26T07:54:48Z</time>
      </trkpt>
      <trkpt lat="42.35716" lon="2.8776116">
        <time>2022-09-26T07:54:52Z</time>
      </trkpt>
      <trkpt lat="42.35711" lon="2.8775926">
        <time>2022-09-26T07:54:56Z</time>
      </trkpt>
      <trkpt lat="42.35706" lon="2.8775856">
        <time>2022-09-26T07:55:00Z</time>
      </trkpt>
      <trkpt lat="42.357002" lon="2.8776126">
        <time>2022-09-26T07:55:05Z</time>
      </trkpt>
      <trkpt lat="42.356953" lon="2.877631">
        <time>2022-09-26T07:55:09Z</time>
      </trkpt>
      <trkpt lat="42.356903" lon="2.8776727">
        <time>2022-09-26T07:55:14Z</time>
      </trkpt>
      <trkpt lat="42.35687" lon="2.8777342">
        <time>2022-09-26T07:55:18Z</time>
      </trkpt>
      <trkpt lat="42.35685" lon="2.877813">
        <time>2022-09-26T07:55:23Z</time>
      </trkpt>
      <trkpt lat="42.356876" lon="2.877882">
        <time>2022-09-26T07:55:28Z</time>
      </trkpt>
      <trkpt lat="42.356915" lon="2.877931">
        <time>2022-09-26T07:55:34Z</time>
      </trkpt>
      <trkpt lat="42.356945" lon="2.877988">
        <time>2022-09-26T07:55:39Z</time>
      </trkpt>
      <trkpt lat="42.356976" lon="2.8780396">
        <time>2022-09-26T07:55:44Z</time>
      </trkpt>
      <trkpt lat="42.357018" lon="2.8780878">
        <time>2022-09-26T07:55:49Z</time>
      </trkpt>
      <trkpt lat="42.357048" lon="2.8781533">
        <time>2022-09-26T07:55:55Z</time>
      </trkpt>
      <trkpt lat="42.357063" lon="2.878219">
        <time>2022-09-26T07:56:00Z</time>
      </trkpt>
      <trkpt lat="42.35707" lon="2.8782964">
        <time>2022-09-26T07:56:06Z</time>
      </trkpt>
      <trkpt lat="42.35709" lon="2.8783636">
        <time>2022-09-26T07:56:11Z</time>
      </trkpt>
      <trkpt lat="42.3571" lon="2.8784332">
        <time>2022-09-26T07:56:16Z</time>
      </trkpt>
      <trkpt lat="42.35712" lon="2.8785017">
        <time>2022-09-26T07:56:21Z</time>
      </trkpt>
      <trkpt lat="42.35713" lon="2.8785603">
        <time>2022-09-26T07:56:27Z</time>
      </trkpt>
      <trkpt lat="42.357082" lon="2.8786871">
        <time>2022-09-26T07:56:54Z</time>
      </trkpt>
      <trkpt lat="42.357098" lon="2.878755">
        <time>2022-09-26T07:56:59Z</time>
      </trkpt>
      <trkpt lat="42.357143" lon="2.8788044">
        <time>2022-09-26T07:57:04Z</time>
      </trkpt>
      <trkpt lat="42.357197" lon="2.878811">
        <time>2022-09-26T07:57:09Z</time>
      </trkpt>
      <trkpt lat="42.357258" lon="2.8787916">
        <time>2022-09-26T07:57:14Z</time>
      </trkpt>
      <trkpt lat="42.357307" lon="2.8787794">
        <time>2022-09-26T07:57:18Z</time>
      </trkpt>
      <trkpt lat="42.357357" lon="2.8787644">
        <time>2022-09-26T07:57:22Z</time>
      </trkpt>
      <trkpt lat="42.357407" lon="2.878743">
        <time>2022-09-26T07:57:26Z</time>
      </trkpt>
      <trkpt lat="42.357464" lon="2.8787274">
        <time>2022-09-26T07:57:31Z</time>
      </trkpt>
      <trkpt lat="42.357513" lon="2.8787308">
        <time>2022-09-26T07:57:35Z</time>
      </trkpt>
      <trkpt lat="42.357574" lon="2.8787313">
        <time>2022-09-26T07:57:40Z</time>
      </trkpt>
      <trkpt lat="42.357624" lon="2.8787327">
        <time>2022-09-26T07:57:44Z</time>
      </trkpt>
      <trkpt lat="42.35768" lon="2.8787293">
        <time>2022-09-26T07:57:49Z</time>
      </trkpt>
      <trkpt lat="42.357735" lon="2.878725">
        <time>2022-09-26T07:57:53Z</time>
      </trkpt>
      <trkpt lat="42.357788" lon="2.8787148">
        <time>2022-09-26T07:57:58Z</time>
      </trkpt>
      <trkpt lat="42.357845" lon="2.8787115">
        <time>2022-09-26T07:58:03Z</time>
      </trkpt>
      <trkpt lat="42.357895" lon="2.8787153">
        <time>2022-09-26T07:58:08Z</time>
      </trkpt>
      <trkpt lat="42.357952" lon="2.8787034">
        <time>2022-09-26T07:58:13Z</time>
      </trkpt>
      <trkpt lat="42.35801" lon="2.8787014">
        <time>2022-09-26T07:58:18Z</time>
      </trkpt>
      <trkpt lat="42.358063" lon="2.8786983">
        <time>2022-09-26T07:58:23Z</time>
      </trkpt>
      <trkpt lat="42.35812" lon="2.8786993">
        <time>2022-09-26T07:58:28Z</time>
      </trkpt>
      <trkpt lat="42.358177" lon="2.878706">
        <time>2022-09-26T07:58:33Z</time>
      </trkpt>
      <trkpt lat="42.358234" lon="2.878724">
        <time>2022-09-26T07:58:38Z</time>
      </trkpt>
      <trkpt lat="42.358284" lon="2.8787498">
        <time>2022-09-26T07:58:43Z</time>
      </trkpt>
      <trkpt lat="42.358345" lon="2.8787816">
        <time>2022-09-26T07:58:48Z</time>
      </trkpt>
      <trkpt lat="42.358395" lon="2.878812">
        <time>2022-09-26T07:58:52Z</time>
      </trkpt>
      <trkpt lat="42.358448" lon="2.87885">
        <time>2022-09-26T07:58:57Z</time>
      </trkpt>
      <trkpt lat="42.358494" lon="2.8788757">
        <time>2022-09-26T07:59:01Z</time>
      </trkpt>
      <trkpt lat="42.358536" lon="2.878908">
        <time>2022-09-26T07:59:05Z</time>
      </trkpt>
      <trkpt lat="42.35859" lon="2.878956">
        <time>2022-09-26T07:59:10Z</time>
      </trkpt>
      <trkpt lat="42.358627" lon="2.8789988">
        <time>2022-09-26T07:59:15Z</time>
      </trkpt>
      <trkpt lat="42.35868" lon="2.8790548">
        <time>2022-09-26T07:59:21Z</time>
      </trkpt>
      <trkpt lat="42.358727" lon="2.8791072">
        <time>2022-09-26T07:59:26Z</time>
      </trkpt>
      <trkpt lat="42.35876" lon="2.8791497">
        <time>2022-09-26T07:59:30Z</time>
      </trkpt>
      <trkpt lat="42.358803" lon="2.879215">
        <time>2022-09-26T07:59:35Z</time>
      </trkpt>
      <trkpt lat="42.358833" lon="2.8792822">
        <time>2022-09-26T07:59:40Z</time>
      </trkpt>
      <trkpt lat="42.358856" lon="2.8793483">
        <time>2022-09-26T07:59:46Z</time>
      </trkpt>
      <trkpt lat="42.358868" lon="2.8794234">
        <time>2022-09-26T07:59:51Z</time>
      </trkpt>
      <trkpt lat="42.35888" lon="2.8795004">
        <time>2022-09-26T07:59:56Z</time>
      </trkpt>
      <trkpt lat="42.35889" lon="2.8795743">
        <time>2022-09-26T08:00:02Z</time>
      </trkpt>
      <trkpt lat="42.358887" lon="2.879675">
        <time>2022-09-26T08:00:16Z</time>
      </trkpt>
      <trkpt lat="42.358894" lon="2.8795817">
        <time>2022-09-26T08:00:52Z</time>
      </trkpt>
      <trkpt lat="42.358547" lon="2.8794467">
        <time>2022-09-26T08:06:42Z</time>
      </trkpt>
      <trkpt lat="42.358852" lon="2.8794625">
        <time>2022-09-26T08:08:28Z</time>
      </trkpt>
      <trkpt lat="42.358894" lon="2.8795784">
        <time>2022-09-26T08:10:02Z</time>
      </trkpt>
      <trkpt lat="42.358906" lon="2.8796532">
        <time>2022-09-26T08:10:06Z</time>
      </trkpt>
      <trkpt lat="42.358913" lon="2.8797314">
        <time>2022-09-26T08:10:10Z</time>
      </trkpt>
      <trkpt lat="42.35891" lon="2.8798113">
        <time>2022-09-26T08:10:15Z</time>
      </trkpt>
      <trkpt lat="42.358894" lon="2.8798764">
        <time>2022-09-26T08:10:19Z</time>
      </trkpt>
      <trkpt lat="42.35887" lon="2.8799376">
        <time>2022-09-26T08:10:23Z</time>
      </trkpt>
      <trkpt lat="42.358845" lon="2.8800106">
        <time>2022-09-26T08:10:28Z</time>
      </trkpt>
      <trkpt lat="42.358818" lon="2.8800943">
        <time>2022-09-26T08:10:33Z</time>
      </trkpt>
      <trkpt lat="42.358807" lon="2.8801653">
        <time>2022-09-26T08:10:37Z</time>
      </trkpt>
      <trkpt lat="42.358814" lon="2.880234">
        <time>2022-09-26T08:10:41Z</time>
      </trkpt>
      <trkpt lat="42.35883" lon="2.8803012">
        <time>2022-09-26T08:10:45Z</time>
      </trkpt>
      <trkpt lat="42.35885" lon="2.8803873">
        <time>2022-09-26T08:10:50Z</time>
      </trkpt>
      <trkpt lat="42.35887" lon="2.880454">
        <time>2022-09-26T08:10:54Z</time>
      </trkpt>
      <trkpt lat="42.35888" lon="2.8805356">
        <time>2022-09-26T08:10:59Z</time>
      </trkpt>
      <trkpt lat="42.35886" lon="2.8806076">
        <time>2022-09-26T08:11:04Z</time>
      </trkpt>
      <trkpt lat="42.358833" lon="2.8806646">
        <time>2022-09-26T08:11:08Z</time>
      </trkpt>
      <trkpt lat="42.358807" lon="2.8807452">
        <time>2022-09-26T08:11:13Z</time>
      </trkpt>
      <trkpt lat="42.35879" lon="2.8808203">
        <time>2022-09-26T08:11:17Z</time>
      </trkpt>
      <trkpt lat="42.358788" lon="2.880888">
        <time>2022-09-26T08:11:21Z</time>
      </trkpt>
      <trkpt lat="42.35879" lon="2.8809724">
        <time>2022-09-26T08:11:26Z</time>
      </trkpt>
      <trkpt lat="42.358795" lon="2.8810594">
        <time>2022-09-26T08:11:31Z</time>
      </trkpt>
      <trkpt lat="42.35879" lon="2.8811376">
        <time>2022-09-26T08:11:35Z</time>
      </trkpt>
      <trkpt lat="42.35879" lon="2.8812044">
        <time>2022-09-26T08:11:39Z</time>
      </trkpt>
      <trkpt lat="42.358788" lon="2.8812723">
        <time>2022-09-26T08:11:43Z</time>
      </trkpt>
      <trkpt lat="42.358772" lon="2.8813636">
        <time>2022-09-26T08:11:48Z</time>
      </trkpt>
      <trkpt lat="42.358757" lon="2.8814294">
        <time>2022-09-26T08:11:52Z</time>
      </trkpt>
      <trkpt lat="42.358734" lon="2.8815002">
        <time>2022-09-26T08:11:56Z</time>
      </trkpt>
      <trkpt lat="42.35871" lon="2.8815622">
        <time>2022-09-26T08:12:00Z</time>
      </trkpt>
      <trkpt lat="42.35868" lon="2.88162">
        <time>2022-09-26T08:12:04Z</time>
      </trkpt>
      <trkpt lat="42.358643" lon="2.881693">
        <time>2022-09-26T08:12:09Z</time>
      </trkpt>
      <trkpt lat="42.35861" lon="2.88175">
        <time>2022-09-26T08:12:13Z</time>
      </trkpt>
      <trkpt lat="42.35857" lon="2.881807">
        <time>2022-09-26T08:12:17Z</time>
      </trkpt>
      <trkpt lat="42.358536" lon="2.8818674">
        <time>2022-09-26T08:12:21Z</time>
      </trkpt>
      <trkpt lat="42.358498" lon="2.8819253">
        <time>2022-09-26T08:12:25Z</time>
      </trkpt>
      <trkpt lat="42.35846" lon="2.881992">
        <time>2022-09-26T08:12:29Z</time>
      </trkpt>
      <trkpt lat="42.358425" lon="2.8820693">
        <time>2022-09-26T08:12:33Z</time>
      </trkpt>
      <trkpt lat="42.3584" lon="2.8821437">
        <time>2022-09-26T08:12:37Z</time>
      </trkpt>
      <trkpt lat="42.35838" lon="2.8822093">
        <time>2022-09-26T08:12:41Z</time>
      </trkpt>
      <trkpt lat="42.358356" lon="2.8822877">
        <time>2022-09-26T08:12:46Z</time>
      </trkpt>
      <trkpt lat="42.358345" lon="2.882363">
        <time>2022-09-26T08:12:50Z</time>
      </trkpt>
      <trkpt lat="42.358326" lon="2.882447">
        <time>2022-09-26T08:12:54Z</time>
      </trkpt>
      <trkpt lat="42.358307" lon="2.8825314">
        <time>2022-09-26T08:12:58Z</time>
      </trkpt>
      <trkpt lat="42.358288" lon="2.8825967">
        <time>2022-09-26T08:13:01Z</time>
      </trkpt>
      <trkpt lat="42.35827" lon="2.8826754">
        <time>2022-09-26T08:13:05Z</time>
      </trkpt>
      <trkpt lat="42.35825" lon="2.882749">
        <time>2022-09-26T08:13:09Z</time>
      </trkpt>
      <trkpt lat="42.35824" lon="2.882821">
        <time>2022-09-26T08:13:13Z</time>
      </trkpt>
      <trkpt lat="42.35823" lon="2.882905">
        <time>2022-09-26T08:13:18Z</time>
      </trkpt>
      <trkpt lat="42.358223" lon="2.882978">
        <time>2022-09-26T08:13:22Z</time>
      </trkpt>
      <trkpt lat="42.358215" lon="2.8830597">
        <time>2022-09-26T08:13:26Z</time>
      </trkpt>
      <trkpt lat="42.358204" lon="2.8831313">
        <time>2022-09-26T08:13:30Z</time>
      </trkpt>
      <trkpt lat="42.358185" lon="2.8832083">
        <time>2022-09-26T08:13:35Z</time>
      </trkpt>
      <trkpt lat="42.358162" lon="2.8832674">
        <time>2022-09-26T08:13:39Z</time>
      </trkpt>
      <trkpt lat="42.358143" lon="2.8833363">
        <time>2022-09-26T08:13:43Z</time>
      </trkpt>
      <trkpt lat="42.358112" lon="2.8834074">
        <time>2022-09-26T08:13:48Z</time>
      </trkpt>
      <trkpt lat="42.358078" lon="2.8834784">
        <time>2022-09-26T08:13:53Z</time>
      </trkpt>
      <trkpt lat="42.358055" lon="2.88354">
        <time>2022-09-26T08:13:57Z</time>
      </trkpt>
      <trkpt lat="42.35803" lon="2.8836062">
        <time>2022-09-26T08:14:14Z</time>
      </trkpt>
      <trkpt lat="42.358013" lon="2.8836703">
        <time>2022-09-26T08:14:18Z</time>
      </trkpt>
      <trkpt lat="42.357986" lon="2.8837497">
        <time>2022-09-26T08:14:23Z</time>
      </trkpt>
      <trkpt lat="42.357983" lon="2.8838232">
        <time>2022-09-26T08:14:32Z</time>
      </trkpt>
      <trkpt lat="42.35799" lon="2.8838902">
        <time>2022-09-26T08:14:37Z</time>
      </trkpt>
      <trkpt lat="42.357994" lon="2.883966">
        <time>2022-09-26T08:14:42Z</time>
      </trkpt>
      <trkpt lat="42.35799" lon="2.884037">
        <time>2022-09-26T08:14:46Z</time>
      </trkpt>
      <trkpt lat="42.357956" lon="2.8840623">
        <time>2022-09-26T08:14:52Z</time>
      </trkpt>
      <trkpt lat="42.357937" lon="2.8839903">
        <time>2022-09-26T08:15:15Z</time>
      </trkpt>
      <trkpt lat="42.357925" lon="2.8839087">
        <time>2022-09-26T08:15:20Z</time>
      </trkpt>
      <trkpt lat="42.35791" lon="2.8838513">
        <time>2022-09-26T08:15:24Z</time>
      </trkpt>
      <trkpt lat="42.35788" lon="2.883783">
        <time>2022-09-26T08:15:29Z</time>
      </trkpt>
      <trkpt lat="42.35784" lon="2.883741">
        <time>2022-09-26T08:15:33Z</time>
      </trkpt>
      <trkpt lat="42.35778" lon="2.8837097">
        <time>2022-09-26T08:15:38Z</time>
      </trkpt>
      <trkpt lat="42.357727" lon="2.8836944">
        <time>2022-09-26T08:15:42Z</time>
      </trkpt>
      <trkpt lat="42.35763" lon="2.8836768">
        <time>2022-09-26T08:15:48Z</time>
      </trkpt>
      <trkpt lat="42.357616" lon="2.8836737">
        <time>2022-09-26T08:15:50Z</time>
      </trkpt>
      <trkpt lat="42.35756" lon="2.883698">
        <time>2022-09-26T08:15:56Z</time>
      </trkpt>
      <trkpt lat="42.357544" lon="2.8837674">
        <time>2022-09-26T08:16:01Z</time>
      </trkpt>
      <trkpt lat="42.35755" lon="2.8838415">
        <time>2022-09-26T08:16:06Z</time>
      </trkpt>
      <trkpt lat="42.35755" lon="2.883905">
        <time>2022-09-26T08:16:10Z</time>
      </trkpt>
      <trkpt lat="42.35753" lon="2.8839827">
        <time>2022-09-26T08:16:16Z</time>
      </trkpt>
      <trkpt lat="42.35749" lon="2.8840487">
        <time>2022-09-26T08:16:22Z</time>
      </trkpt>
      <trkpt lat="42.35744" lon="2.8840926">
        <time>2022-09-26T08:16:27Z</time>
      </trkpt>
      <trkpt lat="42.35739" lon="2.8841271">
        <time>2022-09-26T08:16:32Z</time>
      </trkpt>
      <trkpt lat="42.357346" lon="2.8841603">
        <time>2022-09-26T08:16:37Z</time>
      </trkpt>
      <trkpt lat="42.3573" lon="2.8842022">
        <time>2022-09-26T08:16:42Z</time>
      </trkpt>
      <trkpt lat="42.357254" lon="2.8842397">
        <time>2022-09-26T08:16:47Z</time>
      </trkpt>
      <trkpt lat="42.357235" lon="2.8842483">
        <time>2022-09-26T08:17:31Z</time>
      </trkpt>
      <trkpt lat="42.3572" lon="2.8843157">
        <time>2022-09-26T08:17:39Z</time>
      </trkpt>
      <trkpt lat="42.357162" lon="2.884376">
        <time>2022-09-26T08:17:43Z</time>
      </trkpt>
      <trkpt lat="42.357124" lon="2.884424">
        <time>2022-09-26T08:17:47Z</time>
      </trkpt>
      <trkpt lat="42.357082" lon="2.8844652">
        <time>2022-09-26T08:17:52Z</time>
      </trkpt>
      <trkpt lat="42.35704" lon="2.8845022">
        <time>2022-09-26T08:17:57Z</time>
      </trkpt>
      <trkpt lat="42.356987" lon="2.884536">
        <time>2022-09-26T08:18:02Z</time>
      </trkpt>
      <trkpt lat="42.356937" lon="2.8845634">
        <time>2022-09-26T08:18:07Z</time>
      </trkpt>
      <trkpt lat="42.356888" lon="2.8845727">
        <time>2022-09-26T08:18:12Z</time>
      </trkpt>
      <trkpt lat="42.356827" lon="2.884554">
        <time>2022-09-26T08:18:18Z</time>
      </trkpt>
      <trkpt lat="42.356785" lon="2.8845227">
        <time>2022-09-26T08:18:22Z</time>
      </trkpt>
      <trkpt lat="42.356747" lon="2.8844793">
        <time>2022-09-26T08:18:27Z</time>
      </trkpt>
      <trkpt lat="42.35671" lon="2.8844182">
        <time>2022-09-26T08:18:33Z</time>
      </trkpt>
      <trkpt lat="42.35667" lon="2.884362">
        <time>2022-09-26T08:18:39Z</time>
      </trkpt>
      <trkpt lat="42.356632" lon="2.8843236">
        <time>2022-09-26T08:18:44Z</time>
      </trkpt>
      <trkpt lat="42.356586" lon="2.8842843">
        <time>2022-09-26T08:18:50Z</time>
      </trkpt>
      <trkpt lat="42.356544" lon="2.8842256">
        <time>2022-09-26T08:18:56Z</time>
      </trkpt>
      <trkpt lat="42.35651" lon="2.88418">
        <time>2022-09-26T08:19:00Z</time>
      </trkpt>
      <trkpt lat="42.356464" lon="2.8841348">
        <time>2022-09-26T08:19:05Z</time>
      </trkpt>
      <trkpt lat="42.356415" lon="2.884109">
        <time>2022-09-26T08:19:10Z</time>
      </trkpt>
      <trkpt lat="42.356365" lon="2.8840766">
        <time>2022-09-26T08:19:15Z</time>
      </trkpt>
      <trkpt lat="42.356316" lon="2.884047">
        <time>2022-09-26T08:19:20Z</time>
      </trkpt>
      <trkpt lat="42.356266" lon="2.884035">
        <time>2022-09-26T08:19:25Z</time>
      </trkpt>
      <trkpt lat="42.356216" lon="2.8840744">
        <time>2022-09-26T08:19:30Z</time>
      </trkpt>
      <trkpt lat="42.356194" lon="2.8841465">
        <time>2022-09-26T08:19:35Z</time>
      </trkpt>
      <trkpt lat="42.356186" lon="2.8842297">
        <time>2022-09-26T08:19:41Z</time>
      </trkpt>
      <trkpt lat="42.35618" lon="2.8843098">
        <time>2022-09-26T08:19:46Z</time>
      </trkpt>
      <trkpt lat="42.356182" lon="2.8843887">
        <time>2022-09-26T08:19:51Z</time>
      </trkpt>
      <trkpt lat="42.356167" lon="2.8844717">
        <time>2022-09-26T08:19:56Z</time>
      </trkpt>
      <trkpt lat="42.356148" lon="2.8845541">
        <time>2022-09-26T08:20:01Z</time>
      </trkpt>
      <trkpt lat="42.35613" lon="2.8846333">
        <time>2022-09-26T08:20:06Z</time>
      </trkpt>
      <trkpt lat="42.356113" lon="2.884698">
        <time>2022-09-26T08:20:10Z</time>
      </trkpt>
      <trkpt lat="42.3561" lon="2.884771">
        <time>2022-09-26T08:20:14Z</time>
      </trkpt>
      <trkpt lat="42.35607" lon="2.8848426">
        <time>2022-09-26T08:20:18Z</time>
      </trkpt>
      <trkpt lat="42.356056" lon="2.8849142">
        <time>2022-09-26T08:20:23Z</time>
      </trkpt>
      <trkpt lat="42.356045" lon="2.884986">
        <time>2022-09-26T08:20:28Z</time>
      </trkpt>
      <trkpt lat="42.356026" lon="2.8850467">
        <time>2022-09-26T08:20:33Z</time>
      </trkpt>
      <trkpt lat="42.356014" lon="2.8851204">
        <time>2022-09-26T08:20:39Z</time>
      </trkpt>
      <trkpt lat="42.35599" lon="2.885186">
        <time>2022-09-26T08:20:44Z</time>
      </trkpt>
      <trkpt lat="42.35596" lon="2.8852587">
        <time>2022-09-26T08:20:49Z</time>
      </trkpt>
      <trkpt lat="42.355938" lon="2.8853114">
        <time>2022-09-26T08:20:53Z</time>
      </trkpt>
      <trkpt lat="42.355907" lon="2.8853843">
        <time>2022-09-26T08:20:58Z</time>
      </trkpt>
      <trkpt lat="42.355877" lon="2.8854313">
        <time>2022-09-26T08:21:02Z</time>
      </trkpt>
      <trkpt lat="42.355824" lon="2.8854733">
        <time>2022-09-26T08:21:08Z</time>
      </trkpt>
      <trkpt lat="42.355774" lon="2.8854864">
        <time>2022-09-26T08:21:13Z</time>
      </trkpt>
      <trkpt lat="42.35572" lon="2.8854947">
        <time>2022-09-26T08:21:19Z</time>
      </trkpt>
      <trkpt lat="42.355667" lon="2.8854833">
        <time>2022-09-26T08:21:24Z</time>
      </trkpt>
      <trkpt lat="42.355618" lon="2.8854563">
        <time>2022-09-26T08:21:29Z</time>
      </trkpt>
      <trkpt lat="42.35556" lon="2.885427">
        <time>2022-09-26T08:21:34Z</time>
      </trkpt>
      <trkpt lat="42.355495" lon="2.8853884">
        <time>2022-09-26T08:21:39Z</time>
      </trkpt>
      <trkpt lat="42.355446" lon="2.885356">
        <time>2022-09-26T08:21:43Z</time>
      </trkpt>
      <trkpt lat="42.3554" lon="2.885331">
        <time>2022-09-26T08:21:47Z</time>
      </trkpt>
      <trkpt lat="42.355347" lon="2.8853056">
        <time>2022-09-26T08:21:52Z</time>
      </trkpt>
      <trkpt lat="42.355305" lon="2.8852818">
        <time>2022-09-26T08:21:56Z</time>
      </trkpt>
      <trkpt lat="42.35525" lon="2.885242">
        <time>2022-09-26T08:22:01Z</time>
      </trkpt>
      <trkpt lat="42.35521" lon="2.8852017">
        <time>2022-09-26T08:22:05Z</time>
      </trkpt>
      <trkpt lat="42.355167" lon="2.8851564">
        <time>2022-09-26T08:22:09Z</time>
      </trkpt>
      <trkpt lat="42.355118" lon="2.8851233">
        <time>2022-09-26T08:22:14Z</time>
      </trkpt>
      <trkpt lat="42.35506" lon="2.885115">
        <time>2022-09-26T08:22:19Z</time>
      </trkpt>
      <trkpt lat="42.35501" lon="2.885154">
        <time>2022-09-26T08:22:24Z</time>
      </trkpt>
      <trkpt lat="42.35497" lon="2.8852134">
        <time>2022-09-26T08:22:28Z</time>
      </trkpt>
      <trkpt lat="42.354958" lon="2.885284">
        <time>2022-09-26T08:22:32Z</time>
      </trkpt>
      <trkpt lat="42.354954" lon="2.8853636">
        <time>2022-09-26T08:22:37Z</time>
      </trkpt>
      <trkpt lat="42.354958" lon="2.88544">
        <time>2022-09-26T08:22:42Z</time>
      </trkpt>
      <trkpt lat="42.354973" lon="2.885516">
        <time>2022-09-26T08:22:47Z</time>
      </trkpt>
      <trkpt lat="42.35499" lon="2.885594">
        <time>2022-09-26T08:22:52Z</time>
      </trkpt>
      <trkpt lat="42.355" lon="2.8856754">
        <time>2022-09-26T08:22:57Z</time>
      </trkpt>
      <trkpt lat="42.35501" lon="2.88574">
        <time>2022-09-26T08:23:01Z</time>
      </trkpt>
      <trkpt lat="42.355022" lon="2.8858132">
        <time>2022-09-26T08:23:06Z</time>
      </trkpt>
      <trkpt lat="42.355034" lon="2.8858857">
        <time>2022-09-26T08:23:11Z</time>
      </trkpt>
      <trkpt lat="42.35504" lon="2.88595">
        <time>2022-09-26T08:23:21Z</time>
      </trkpt>
      <trkpt lat="42.355083" lon="2.8860083">
        <time>2022-09-26T08:23:31Z</time>
      </trkpt>
      <trkpt lat="42.35511" lon="2.8860788">
        <time>2022-09-26T08:23:36Z</time>
      </trkpt>
      <trkpt lat="42.35513" lon="2.8861449">
        <time>2022-09-26T08:23:40Z</time>
      </trkpt>
      <trkpt lat="42.355137" lon="2.8862193">
        <time>2022-09-26T08:23:44Z</time>
      </trkpt>
      <trkpt lat="42.355152" lon="2.8862927">
        <time>2022-09-26T08:23:48Z</time>
      </trkpt>
      <trkpt lat="42.35516" lon="2.8863626">
        <time>2022-09-26T08:23:52Z</time>
      </trkpt>
      <trkpt lat="42.35517" lon="2.8864236">
        <time>2022-09-26T08:23:56Z</time>
      </trkpt>
      <trkpt lat="42.35518" lon="2.886498">
        <time>2022-09-26T08:24:01Z</time>
      </trkpt>
      <trkpt lat="42.355175" lon="2.8865776">
        <time>2022-09-26T08:24:05Z</time>
      </trkpt>
      <trkpt lat="42.355164" lon="2.88666">
        <time>2022-09-26T08:24:09Z</time>
      </trkpt>
      <trkpt lat="42.35514" lon="2.88673">
        <time>2022-09-26T08:24:13Z</time>
      </trkpt>
      <trkpt lat="42.355118" lon="2.8867953">
        <time>2022-09-26T08:24:17Z</time>
      </trkpt>
      <trkpt lat="42.3551" lon="2.8868573">
        <time>2022-09-26T08:24:21Z</time>
      </trkpt>
      <trkpt lat="42.355087" lon="2.8869355">
        <time>2022-09-26T08:24:25Z</time>
      </trkpt>
      <trkpt lat="42.35508" lon="2.887005">
        <time>2022-09-26T08:24:28Z</time>
      </trkpt>
      <trkpt lat="42.355083" lon="2.8870857">
        <time>2022-09-26T08:24:32Z</time>
      </trkpt>
      <trkpt lat="42.35509" lon="2.887166">
        <time>2022-09-26T08:24:36Z</time>
      </trkpt>
      <trkpt lat="42.355114" lon="2.887237">
        <time>2022-09-26T08:24:40Z</time>
      </trkpt>
      <trkpt lat="42.355152" lon="2.8872817">
        <time>2022-09-26T08:24:44Z</time>
      </trkpt>
      <trkpt lat="42.355206" lon="2.8873208">
        <time>2022-09-26T08:24:49Z</time>
      </trkpt>
      <trkpt lat="42.355255" lon="2.8873436">
        <time>2022-09-26T08:24:53Z</time>
      </trkpt>
      <trkpt lat="42.3553" lon="2.8873603">
        <time>2022-09-26T08:24:57Z</time>
      </trkpt>
      <trkpt lat="42.355354" lon="2.887375">
        <time>2022-09-26T08:25:01Z</time>
      </trkpt>
      <trkpt lat="42.355404" lon="2.8873897">
        <time>2022-09-26T08:25:05Z</time>
      </trkpt>
      <trkpt lat="42.35543" lon="2.8874462">
        <time>2022-09-26T08:25:12Z</time>
      </trkpt>
      <trkpt lat="42.355415" lon="2.8875172">
        <time>2022-09-26T08:25:17Z</time>
      </trkpt>
      <trkpt lat="42.35539" lon="2.887579">
        <time>2022-09-26T08:25:21Z</time>
      </trkpt>
      <trkpt lat="42.35536" lon="2.8876398">
        <time>2022-09-26T08:25:25Z</time>
      </trkpt>
      <trkpt lat="42.35533" lon="2.8876987">
        <time>2022-09-26T08:25:29Z</time>
      </trkpt>
      <trkpt lat="42.3553" lon="2.887774">
        <time>2022-09-26T08:25:34Z</time>
      </trkpt>
      <trkpt lat="42.35527" lon="2.8878317">
        <time>2022-09-26T08:25:38Z</time>
      </trkpt>
      <trkpt lat="42.355232" lon="2.8878984">
        <time>2022-09-26T08:25:43Z</time>
      </trkpt>
      <trkpt lat="42.35519" lon="2.8879447">
        <time>2022-09-26T08:25:47Z</time>
      </trkpt>
      <trkpt lat="42.355152" lon="2.887991">
        <time>2022-09-26T08:25:51Z</time>
      </trkpt>
      <trkpt lat="42.355114" lon="2.8880415">
        <time>2022-09-26T08:25:55Z</time>
      </trkpt>
      <trkpt lat="42.355076" lon="2.888096">
        <time>2022-09-26T08:25:59Z</time>
      </trkpt>
      <trkpt lat="42.35505" lon="2.888157">
        <time>2022-09-26T08:26:03Z</time>
      </trkpt>
      <trkpt lat="42.355034" lon="2.888221">
        <time>2022-09-26T08:26:07Z</time>
      </trkpt>
      <trkpt lat="42.355015" lon="2.888298">
        <time>2022-09-26T08:26:12Z</time>
      </trkpt>
      <trkpt lat="42.354992" lon="2.8883538">
        <time>2022-09-26T08:26:16Z</time>
      </trkpt>
      <trkpt lat="42.354954" lon="2.8884127">
        <time>2022-09-26T08:26:21Z</time>
      </trkpt>
      <trkpt lat="42.354908" lon="2.8884652">
        <time>2022-09-26T08:26:26Z</time>
      </trkpt>
      <trkpt lat="42.354866" lon="2.8885117">
        <time>2022-09-26T08:26:31Z</time>
      </trkpt>
      <trkpt lat="42.354816" lon="2.8885612">
        <time>2022-09-26T08:26:36Z</time>
      </trkpt>
      <trkpt lat="42.35477" lon="2.8886154">
        <time>2022-09-26T08:26:41Z</time>
      </trkpt>
      <trkpt lat="42.354733" lon="2.8886783">
        <time>2022-09-26T08:26:46Z</time>
      </trkpt>
      <trkpt lat="42.3547" lon="2.888743">
        <time>2022-09-26T08:26:51Z</time>
      </trkpt>
      <trkpt lat="42.354664" lon="2.8887956">
        <time>2022-09-26T08:26:55Z</time>
      </trkpt>
      <trkpt lat="42.35462" lon="2.8888443">
        <time>2022-09-26T08:26:59Z</time>
      </trkpt>
      <trkpt lat="42.35458" lon="2.8888876">
        <time>2022-09-26T08:27:03Z</time>
      </trkpt>
      <trkpt lat="42.35454" lon="2.8889334">
        <time>2022-09-26T08:27:07Z</time>
      </trkpt>
      <trkpt lat="42.3545" lon="2.888991">
        <time>2022-09-26T08:27:12Z</time>
      </trkpt>
      <trkpt lat="42.354458" lon="2.8890378">
        <time>2022-09-26T08:27:16Z</time>
      </trkpt>
      <trkpt lat="42.354424" lon="2.889065">
        <time>2022-09-26T08:27:21Z</time>
      </trkpt>
      <trkpt lat="42.354366" lon="2.889102">
        <time>2022-09-26T08:27:30Z</time>
      </trkpt>
      <trkpt lat="42.354313" lon="2.889125">
        <time>2022-09-26T08:27:35Z</time>
      </trkpt>
      <trkpt lat="42.35425" lon="2.8891177">
        <time>2022-09-26T08:27:40Z</time>
      </trkpt>
      <trkpt lat="42.354187" lon="2.8891">
        <time>2022-09-26T08:27:45Z</time>
      </trkpt>
      <trkpt lat="42.354134" lon="2.8891017">
        <time>2022-09-26T08:27:49Z</time>
      </trkpt>
      <trkpt lat="42.354084" lon="2.8891222">
        <time>2022-09-26T08:27:53Z</time>
      </trkpt>
      <trkpt lat="42.354034" lon="2.8891494">
        <time>2022-09-26T08:27:57Z</time>
      </trkpt>
      <trkpt lat="42.353977" lon="2.88917">
        <time>2022-09-26T08:28:01Z</time>
      </trkpt>
      <trkpt lat="42.353924" lon="2.8891597">
        <time>2022-09-26T08:28:06Z</time>
      </trkpt>
      <trkpt lat="42.353874" lon="2.889121">
        <time>2022-09-26T08:28:11Z</time>
      </trkpt>
      <trkpt lat="42.35382" lon="2.8890924">
        <time>2022-09-26T08:28:16Z</time>
      </trkpt>
      <trkpt lat="42.35377" lon="2.8891304">
        <time>2022-09-26T08:28:21Z</time>
      </trkpt>
      <trkpt lat="42.353745" lon="2.889194">
        <time>2022-09-26T08:28:26Z</time>
      </trkpt>
      <trkpt lat="42.353745" lon="2.8892753">
        <time>2022-09-26T08:28:31Z</time>
      </trkpt>
      <trkpt lat="42.353737" lon="2.88936">
        <time>2022-09-26T08:28:36Z</time>
      </trkpt>
      <trkpt lat="42.353737" lon="2.8894455">
        <time>2022-09-26T08:28:41Z</time>
      </trkpt>
      <trkpt lat="42.353756" lon="2.8895257">
        <time>2022-09-26T08:28:46Z</time>
      </trkpt>
      <trkpt lat="42.35377" lon="2.889605">
        <time>2022-09-26T08:28:51Z</time>
      </trkpt>
      <trkpt lat="42.35377" lon="2.8896704">
        <time>2022-09-26T08:28:55Z</time>
      </trkpt>
      <trkpt lat="42.353752" lon="2.889744">
        <time>2022-09-26T08:28:59Z</time>
      </trkpt>
      <trkpt lat="42.353725" lon="2.8898144">
        <time>2022-09-26T08:29:03Z</time>
      </trkpt>
      <trkpt lat="42.3537" lon="2.8898764">
        <time>2022-09-26T08:29:07Z</time>
      </trkpt>
      <trkpt lat="42.35367" lon="2.8899443">
        <time>2022-09-26T08:29:12Z</time>
      </trkpt>
      <trkpt lat="42.35364" lon="2.8899987">
        <time>2022-09-26T08:29:16Z</time>
      </trkpt>
      <trkpt lat="42.353603" lon="2.890072">
        <time>2022-09-26T08:29:21Z</time>
      </trkpt>
      <trkpt lat="42.353573" lon="2.8901289">
        <time>2022-09-26T08:29:25Z</time>
      </trkpt>
      <trkpt lat="42.35354" lon="2.8901994">
        <time>2022-09-26T08:29:30Z</time>
      </trkpt>
      <trkpt lat="42.3535" lon="2.890252">
        <time>2022-09-26T08:29:34Z</time>
      </trkpt>
      <trkpt lat="42.35346" lon="2.890307">
        <time>2022-09-26T08:29:39Z</time>
      </trkpt>
      <trkpt lat="42.353413" lon="2.8903363">
        <time>2022-09-26T08:29:43Z</time>
      </trkpt>
      <trkpt lat="42.35335" lon="2.8903337">
        <time>2022-09-26T08:29:48Z</time>
      </trkpt>
      <trkpt lat="42.35331" lon="2.890309">
        <time>2022-09-26T08:29:52Z</time>
      </trkpt>
      <trkpt lat="42.353268" lon="2.8902597">
        <time>2022-09-26T08:29:57Z</time>
      </trkpt>
      <trkpt lat="42.353226" lon="2.890211">
        <time>2022-09-26T08:30:02Z</time>
      </trkpt>
      <trkpt lat="42.35318" lon="2.8901815">
        <time>2022-09-26T08:30:06Z</time>
      </trkpt>
      <trkpt lat="42.353127" lon="2.8901684">
        <time>2022-09-26T08:30:10Z</time>
      </trkpt>
      <trkpt lat="42.353073" lon="2.8901513">
        <time>2022-09-26T08:30:14Z</time>
      </trkpt>
      <trkpt lat="42.353016" lon="2.8901494">
        <time>2022-09-26T08:30:19Z</time>
      </trkpt>
      <trkpt lat="42.352962" lon="2.8901756">
        <time>2022-09-26T08:30:23Z</time>
      </trkpt>
      <trkpt lat="42.35294" lon="2.8902316">
        <time>2022-09-26T08:30:27Z</time>
      </trkpt>
      <trkpt lat="42.35296" lon="2.890306">
        <time>2022-09-26T08:30:32Z</time>
      </trkpt>
      <trkpt lat="42.352978" lon="2.890383">
        <time>2022-09-26T08:30:37Z</time>
      </trkpt>
      <trkpt lat="42.35299" lon="2.8904448">
        <time>2022-09-26T08:30:41Z</time>
      </trkpt>
      <trkpt lat="42.35299" lon="2.8905244">
        <time>2022-09-26T08:30:46Z</time>
      </trkpt>
      <trkpt lat="42.35299" lon="2.890592">
        <time>2022-09-26T08:30:49Z</time>
      </trkpt>
      <trkpt lat="42.35298" lon="2.8906906">
        <time>2022-09-26T08:30:56Z</time>
      </trkpt>
      <trkpt lat="42.352978" lon="2.8907616">
        <time>2022-09-26T08:31:00Z</time>
      </trkpt>
      <trkpt lat="42.352966" lon="2.8908384">
        <time>2022-09-26T08:31:04Z</time>
      </trkpt>
      <trkpt lat="42.35295" lon="2.8909097">
        <time>2022-09-26T08:31:08Z</time>
      </trkpt>
      <trkpt lat="42.352936" lon="2.8909764">
        <time>2022-09-26T08:31:12Z</time>
      </trkpt>
      <trkpt lat="42.352917" lon="2.8910534">
        <time>2022-09-26T08:31:17Z</time>
      </trkpt>
      <trkpt lat="42.352882" lon="2.891131">
        <time>2022-09-26T08:31:22Z</time>
      </trkpt>
      <trkpt lat="42.35286" lon="2.891192">
        <time>2022-09-26T08:31:26Z</time>
      </trkpt>
      <trkpt lat="42.35284" lon="2.8912654">
        <time>2022-09-26T08:31:31Z</time>
      </trkpt>
      <trkpt lat="42.352833" lon="2.8913414">
        <time>2022-09-26T08:31:36Z</time>
      </trkpt>
      <trkpt lat="42.352825" lon="2.8914053">
        <time>2022-09-26T08:31:40Z</time>
      </trkpt>
      <trkpt lat="42.35281" lon="2.8914986">
        <time>2022-09-26T08:31:52Z</time>
      </trkpt>
      <trkpt lat="42.352806" lon="2.891575">
        <time>2022-09-26T08:31:58Z</time>
      </trkpt>
      <trkpt lat="42.352795" lon="2.8916442">
        <time>2022-09-26T08:32:03Z</time>
      </trkpt>
      <trkpt lat="42.352776" lon="2.8917012">
        <time>2022-09-26T08:32:08Z</time>
      </trkpt>
      <trkpt lat="42.352737" lon="2.8917723">
        <time>2022-09-26T08:32:15Z</time>
      </trkpt>
      <trkpt lat="42.35271" lon="2.891821">
        <time>2022-09-26T08:32:19Z</time>
      </trkpt>
      <trkpt lat="42.35267" lon="2.891882">
        <time>2022-09-26T08:32:24Z</time>
      </trkpt>
      <trkpt lat="42.352634" lon="2.8919444">
        <time>2022-09-26T08:32:29Z</time>
      </trkpt>
      <trkpt lat="42.352596" lon="2.8920145">
        <time>2022-09-26T08:32:34Z</time>
      </trkpt>
      <trkpt lat="42.352562" lon="2.8920674">
        <time>2022-09-26T08:32:38Z</time>
      </trkpt>
      <trkpt lat="42.352524" lon="2.8921244">
        <time>2022-09-26T08:32:43Z</time>
      </trkpt>
      <trkpt lat="42.352486" lon="2.892183">
        <time>2022-09-26T08:32:48Z</time>
      </trkpt>
      <trkpt lat="42.352448" lon="2.8922548">
        <time>2022-09-26T08:32:53Z</time>
      </trkpt>
      <trkpt lat="42.352413" lon="2.8923094">
        <time>2022-09-26T08:32:57Z</time>
      </trkpt>
      <trkpt lat="42.352367" lon="2.8923671">
        <time>2022-09-26T08:33:02Z</time>
      </trkpt>
      <trkpt lat="42.352314" lon="2.892408">
        <time>2022-09-26T08:33:07Z</time>
      </trkpt>
      <trkpt lat="42.352272" lon="2.8924384">
        <time>2022-09-26T08:33:11Z</time>
      </trkpt>
      <trkpt lat="42.352215" lon="2.892485">
        <time>2022-09-26T08:33:16Z</time>
      </trkpt>
      <trkpt lat="42.352177" lon="2.8925345">
        <time>2022-09-26T08:33:20Z</time>
      </trkpt>
      <trkpt lat="42.35213" lon="2.8925924">
        <time>2022-09-26T08:33:25Z</time>
      </trkpt>
      <trkpt lat="42.352093" lon="2.8926423">
        <time>2022-09-26T08:33:29Z</time>
      </trkpt>
      <trkpt lat="42.352047" lon="2.892702">
        <time>2022-09-26T08:33:34Z</time>
      </trkpt>
      <trkpt lat="42.352005" lon="2.892759">
        <time>2022-09-26T08:33:39Z</time>
      </trkpt>
      <trkpt lat="42.35197" lon="2.8928263">
        <time>2022-09-26T08:33:44Z</time>
      </trkpt>
      <trkpt lat="42.351933" lon="2.892892">
        <time>2022-09-26T08:33:49Z</time>
      </trkpt>
      <trkpt lat="42.351894" lon="2.892946">
        <time>2022-09-26T08:33:53Z</time>
      </trkpt>
      <trkpt lat="42.351852" lon="2.8929873">
        <time>2022-09-26T08:33:57Z</time>
      </trkpt>
      <trkpt lat="42.351807" lon="2.8930297">
        <time>2022-09-26T08:34:01Z</time>
      </trkpt>
      <trkpt lat="42.35177" lon="2.8930848">
        <time>2022-09-26T08:34:05Z</time>
      </trkpt>
      <trkpt lat="42.35132" lon="2.8934836">
        <time>2022-09-26T08:35:42Z</time>
      </trkpt>
      <trkpt lat="42.35132" lon="2.8934836">
        <time>2022-09-26T08:35:43Z</time>
      </trkpt>
      <trkpt lat="42.35132" lon="2.8934836">
        <time>2022-09-26T08:35:44Z</time>
      </trkpt>
      <trkpt lat="42.351315" lon="2.8934836">
        <time>2022-09-26T08:35:45Z</time>
      </trkpt>
      <trkpt lat="42.35131" lon="2.8934867">
        <time>2022-09-26T08:35:46Z</time>
      </trkpt>
      <trkpt lat="42.351303" lon="2.8934927">
        <time>2022-09-26T08:35:47Z</time>
      </trkpt>
      <trkpt lat="42.351295" lon="2.893501">
        <time>2022-09-26T08:35:48Z</time>
      </trkpt>
      <trkpt lat="42.351288" lon="2.8935099">
        <time>2022-09-26T08:35:49Z</time>
      </trkpt>
      <trkpt lat="42.351276" lon="2.8935206">
        <time>2022-09-26T08:35:50Z</time>
      </trkpt>
      <trkpt lat="42.351265" lon="2.8935323">
        <time>2022-09-26T08:35:51Z</time>
      </trkpt>
      <trkpt lat="42.351254" lon="2.8935432">
        <time>2022-09-26T08:35:52Z</time>
      </trkpt>
      <trkpt lat="42.35124" lon="2.8935554">
        <time>2022-09-26T08:35:53Z</time>
      </trkpt>
      <trkpt lat="42.35119" lon="2.893609">
        <time>2022-09-26T08:35:57Z</time>
      </trkpt>
      <trkpt lat="42.35115" lon="2.8936596">
        <time>2022-09-26T08:36:01Z</time>
      </trkpt>
      <trkpt lat="42.35111" lon="2.8937237">
        <time>2022-09-26T08:36:06Z</time>
      </trkpt>
      <trkpt lat="42.351063" lon="2.8937876">
        <time>2022-09-26T08:36:11Z</time>
      </trkpt>
      <trkpt lat="42.35101" lon="2.8938372">
        <time>2022-09-26T08:36:16Z</time>
      </trkpt>
      <trkpt lat="42.350952" lon="2.8938756">
        <time>2022-09-26T08:36:21Z</time>
      </trkpt>
      <trkpt lat="42.35091" lon="2.8939102">
        <time>2022-09-26T08:36:25Z</time>
      </trkpt>
      <trkpt lat="42.350857" lon="2.893957">
        <time>2022-09-26T08:36:30Z</time>
      </trkpt>
      <trkpt lat="42.350803" lon="2.8940098">
        <time>2022-09-26T08:36:35Z</time>
      </trkpt>
      <trkpt lat="42.350765" lon="2.8940635">
        <time>2022-09-26T08:36:40Z</time>
      </trkpt>
      <trkpt lat="42.35074" lon="2.8941216">
        <time>2022-09-26T08:36:45Z</time>
      </trkpt>
      <trkpt lat="42.3507" lon="2.894176">
        <time>2022-09-26T08:36:50Z</time>
      </trkpt>
      <trkpt lat="42.350666" lon="2.8942378">
        <time>2022-09-26T08:36:55Z</time>
      </trkpt>
      <trkpt lat="42.350647" lon="2.8942957">
        <time>2022-09-26T08:36:59Z</time>
      </trkpt>
      <trkpt lat="42.350636" lon="2.8943698">
        <time>2022-09-26T08:37:04Z</time>
      </trkpt>
      <trkpt lat="42.35064" lon="2.8944366">
        <time>2022-09-26T08:37:10Z</time>
      </trkpt>
      <trkpt lat="42.350674" lon="2.894523">
        <time>2022-09-26T08:37:17Z</time>
      </trkpt>
      <trkpt lat="42.350708" lon="2.8945873">
        <time>2022-09-26T08:37:21Z</time>
      </trkpt>
      <trkpt lat="42.350742" lon="2.8946302">
        <time>2022-09-26T08:37:24Z</time>
      </trkpt>
      <trkpt lat="42.35077" lon="2.8946836">
        <time>2022-09-26T08:37:29Z</time>
      </trkpt>
      <trkpt lat="42.350807" lon="2.8947396">
        <time>2022-09-26T08:37:35Z</time>
      </trkpt>
      <trkpt lat="42.350838" lon="2.8947973">
        <time>2022-09-26T08:37:39Z</time>
      </trkpt>
      <trkpt lat="42.350876" lon="2.8948586">
        <time>2022-09-26T08:37:44Z</time>
      </trkpt>
      <trkpt lat="42.350906" lon="2.894908">
        <time>2022-09-26T08:37:48Z</time>
      </trkpt>
      <trkpt lat="42.350956" lon="2.8949642">
        <time>2022-09-26T08:37:53Z</time>
      </trkpt>
      <trkpt lat="42.351" lon="2.8950157">
        <time>2022-09-26T08:37:58Z</time>
      </trkpt>
      <trkpt lat="42.351048" lon="2.895073">
        <time>2022-09-26T08:38:03Z</time>
      </trkpt>
      <trkpt lat="42.35109" lon="2.8951006">
        <time>2022-09-26T08:38:07Z</time>
      </trkpt>
      <trkpt lat="42.351124" lon="2.895161">
        <time>2022-09-26T08:38:13Z</time>
      </trkpt>
      <trkpt lat="42.35112" lon="2.895212">
        <time>2022-09-26T08:38:20Z</time>
      </trkpt>
    </trkseg>
  </trk>
</gpx>
